Wetterdaten: Mittwoch, 04.10.2023
Datum Zeit Temp. Aussen Temp. o. S. Temp +5cm Feuchte Auss Luftdruck Regen Sonnenschein Regendauer Solar Windben Empfang
04.10.2023 00:00 13,2 C 12,2 C 9,4 C 86 % 1025,4 hPa 0,0 l/m 0 min 0 min 0 W/m 12,9 km/h (3 Bft) 95,74 %
04.10.2023 00:02 13,2 C 12,2 C 9,4 C 86 % 1025,4 hPa 0,0 l/m 0 min 0 min 0 W/m 12,9 km/h (3 Bft) 97,30 %
04.10.2023 00:04 13,2 C 12,2 C 9,4 C 86 % 1025,4 hPa 0,0 l/m 0 min 0 min 0 W/m 6,4 km/h (2 Bft) 93,88 %
04.10.2023 00:08 13,2 C 12,2 C 9,4 C 86 % 1025,3 hPa 0,0 l/m 0 min 0 min 0 W/m 9,7 km/h (2 Bft) 97,89 %
04.10.2023 00:09 13,2 C 12,2 C 9,4 C 86 % 1025,4 hPa 0,0 l/m 0 min 0 min 0 W/m 6,4 km/h (2 Bft) 100,00 %
04.10.2023 00:10 13,2 C 12,2 C 9,4 C 86 % 1025,4 hPa 0,0 l/m 0 min 0 min 0 W/m 9,7 km/h (2 Bft) 99,12 %
04.10.2023 00:14 13,2 C 12,2 C 9,4 C 86 % 1025,4 hPa 0,0 l/m 0 min 0 min 0 W/m 6,4 km/h (2 Bft) 100,00 %
04.10.2023 00:16 13,2 C 12,2 C 9,4 C 86 % 1025,4 hPa 0,0 l/m 0 min 0 min 0 W/m 6,4 km/h (2 Bft) 98,00 %
04.10.2023 00:18 13,2 C 12,2 C 9,4 C 86 % 1025,4 hPa 0,0 l/m 0 min 0 min 0 W/m 6,4 km/h (2 Bft) 95,83 %
04.10.2023 00:20 13,2 C 12,2 C 9,4 C 86 % 1025,4 hPa 0,0 l/m 0 min 0 min 0 W/m 3,2 km/h (1 Bft) 95,74 %
04.10.2023 00:22 13,2 C 12,2 C 9,4 C 86 % 1025,4 hPa 0,0 l/m 0 min 0 min 0 W/m 3,2 km/h (1 Bft) 95,74 %
04.10.2023 00:24 13,2 C 12,2 C 9,4 C 86 % 1025,4 hPa 0,0 l/m 0 min 0 min 0 W/m 6,4 km/h (2 Bft) 97,87 %
04.10.2023 00:26 13,2 C 12,2 C 8,9 C 86 % 1025,4 hPa 0,0 l/m 0 min 0 min 0 W/m 9,7 km/h (2 Bft) 97,87 %
04.10.2023 00:28 13,2 C 12,2 C 9,4 C 86 % 1025,4 hPa 0,0 l/m 0 min 0 min 0 W/m 6,4 km/h (2 Bft) 97,87 %
04.10.2023 00:30 13,2 C 12,2 C 9,4 C 86 % 1025,4 hPa 0,0 l/m 0 min 0 min 0 W/m 6,4 km/h (2 Bft) 95,65 %
04.10.2023 00:32 13,2 C 12,2 C 9,4 C 86 % 1025,4 hPa 0,0 l/m 0 min 0 min 0 W/m 12,9 km/h (3 Bft) 95,74 %
04.10.2023 00:34 13,2 C 12,2 C 9,4 C 86 % 1025,4 hPa 0,0 l/m 0 min 0 min 0 W/m 6,4 km/h (2 Bft) 93,62 %
04.10.2023 00:36 13,2 C 12,2 C 9,4 C 86 % 1025,3 hPa 0,0 l/m 0 min 0 min 0 W/m 6,4 km/h (2 Bft) 93,62 %
04.10.2023 00:38 13,2 C 12,2 C 9,4 C 86 % 1025,4 hPa 0,0 l/m 0 min 0 min 0 W/m 12,9 km/h (3 Bft) 95,74 %
04.10.2023 00:40 13,2 C 12,2 C 9,4 C 86 % 1025,4 hPa 0,0 l/m 0 min 0 min 0 W/m 12,9 km/h (3 Bft) 95,74 %
04.10.2023 00:42 13,2 C 12,2 C 9,4 C 86 % 1025,3 hPa 0,0 l/m 0 min 0 min 0 W/m 6,4 km/h (2 Bft) 97,87 %
04.10.2023 00:44 13,2 C 12,2 C 9,4 C 86 % 1025,3 hPa 0,0 l/m 0 min 0 min 0 W/m 16,1 km/h (3 Bft) 100,00 %
04.10.2023 00:46 13,2 C 12,2 C 9,4 C 86 % 1025,3 hPa 0,0 l/m 0 min 0 min 0 W/m 9,7 km/h (2 Bft) 97,87 %
04.10.2023 00:48 13,2 C 12,2 C 9,4 C 86 % 1025,3 hPa 0,0 l/m 0 min 0 min 0 W/m 12,9 km/h (3 Bft) 97,87 %
04.10.2023 00:50 13,2 C 12,2 C 9,4 C 86 % 1025,3 hPa 0,0 l/m 0 min 0 min 0 W/m 6,4 km/h (2 Bft) 97,62 %
04.10.2023 00:52 13,2 C 12,2 C 9,4 C 86 % 1025,3 hPa 0,0 l/m 0 min 0 min 0 W/m 6,4 km/h (2 Bft) 95,74 %
04.10.2023 00:54 13,2 C 12,2 C 9,4 C 86 % 1025,3 hPa 0,0 l/m 0 min 0 min 0 W/m 12,9 km/h (3 Bft) 97,87 %
04.10.2023 00:56 13,2 C 12,2 C 9,4 C 86 % 1025,3 hPa 0,0 l/m 0 min 0 min 0 W/m 9,7 km/h (2 Bft) 97,87 %
04.10.2023 00:58 13,2 C 12,2 C 9,4 C 86 % 1025,3 hPa 0,0 l/m 0 min 0 min 0 W/m 6,4 km/h (2 Bft) 100,00 %
04.10.2023 01:00 13,2 C 12,2 C 8,9 C 86 % 1025,3 hPa 0,0 l/m 0 min 0 min 0 W/m 12,9 km/h (3 Bft) 93,62 %
04.10.2023 01:02 13,2 C 12,2 C 8,9 C 86 % 1025,3 hPa 0,0 l/m 0 min 0 min 0 W/m 12,9 km/h (3 Bft) 95,65 %
04.10.2023 01:04 13,2 C 12,2 C 8,9 C 87 % 1025,3 hPa 0,0 l/m 0 min 0 min 0 W/m 6,4 km/h (2 Bft) 98,08 %
04.10.2023 01:08 13,2 C 12,2 C 8,9 C 87 % 1025,3 hPa 0,0 l/m 0 min 0 min 0 W/m 12,9 km/h (3 Bft) 98,08 %
04.10.2023 01:12 13,2 C 12,2 C 8,9 C 87 % 1025,3 hPa 0,0 l/m 0 min 0 min 0 W/m 12,9 km/h (3 Bft) 94,59 %
04.10.2023 01:14 13,2 C 12,2 C 8,9 C 87 % 1025,3 hPa 0,0 l/m 0 min 0 min 0 W/m 12,9 km/h (3 Bft) 95,65 %
04.10.2023 01:16 13,1 C 12,2 C 8,9 C 87 % 1025,3 hPa 0,0 l/m 0 min 0 min 0 W/m 16,1 km/h (3 Bft) 97,87 %
04.10.2023 01:18 13,2 C 12,2 C 8,9 C 87 % 1025,2 hPa 0,0 l/m 0 min 0 min 0 W/m 12,9 km/h (3 Bft) 97,87 %
04.10.2023 01:20 13,1 C 12,2 C 8,9 C 87 % 1025,3 hPa 0,0 l/m 0 min 0 min 0 W/m 12,9 km/h (3 Bft) 97,87 %
04.10.2023 01:22 13,1 C 12,2 C 8,9 C 87 % 1025,3 hPa 0,0 l/m 0 min 0 min 0 W/m 12,9 km/h (3 Bft) 97,87 %
04.10.2023 01:24 13,2 C 12,2 C 8,9 C 87 % 1025,3 hPa 0,0 l/m 0 min 0 min 0 W/m 12,9 km/h (3 Bft) 59,57 %
04.10.2023 01:26 13,1 C 12,2 C 8,9 C 87 % 1025,3 hPa 0,0 l/m 0 min 0 min 0 W/m 12,9 km/h (3 Bft) 90,91 %
04.10.2023 01:28 13,1 C 12,2 C 8,9 C 87 % 1025,3 hPa 0,0 l/m 0 min 0 min 0 W/m 12,9 km/h (3 Bft) 97,87 %
04.10.2023 01:30 13,1 C 12,2 C 8,9 C 87 % 1025,3 hPa 0,0 l/m 0 min 0 min 0 W/m 12,9 km/h (3 Bft) 97,83 %
04.10.2023 01:32 13,1 C 12,2 C 8,9 C 87 % 1025,3 hPa 0,0 l/m 0 min 0 min 0 W/m 3,2 km/h (1 Bft) 95,74 %
04.10.2023 01:34 13,1 C 12,2 C 8,9 C 87 % 1025,3 hPa 0,0 l/m 0 min 0 min 0 W/m 6,4 km/h (2 Bft) 95,74 %
04.10.2023 01:36 13,1 C 12,2 C 8,9 C 87 % 1025,4 hPa 0,0 l/m 0 min 0 min 0 W/m 12,9 km/h (3 Bft) 97,87 %
04.10.2023 01:38 13,1 C 12,2 C 8,9 C 87 % 1025,3 hPa 0,0 l/m 0 min 0 min 0 W/m 9,7 km/h (2 Bft) 97,87 %
04.10.2023 01:40 13,1 C 12,2 C 8,9 C 87 % 1025,4 hPa 0,0 l/m 0 min 0 min 0 W/m 12,9 km/h (3 Bft) 97,87 %
04.10.2023 01:42 13,1 C 12,2 C 8,9 C 87 % 1025,4 hPa 0,0 l/m 0 min 0 min 0 W/m 6,4 km/h (2 Bft) 97,87 %
04.10.2023 01:44 13,1 C 12,2 C 8,9 C 87 % 1025,5 hPa 0,0 l/m 0 min 0 min 0 W/m 12,9 km/h (3 Bft) 100,00 %
04.10.2023 01:46 13,1 C 12,2 C 8,9 C 87 % 1025,5 hPa 0,0 l/m 0 min 0 min 0 W/m 12,9 km/h (3 Bft) 97,83 %
04.10.2023 01:48 13,1 C 12,2 C 8,9 C 87 % 1025,5 hPa 0,0 l/m 0 min 0 min 0 W/m 9,7 km/h (2 Bft) 97,87 %
04.10.2023 01:50 13,0 C 12,2 C 8,9 C 88 % 1025,5 hPa 0,0 l/m 0 min 0 min 0 W/m 12,9 km/h (3 Bft) 97,87 %
04.10.2023 01:52 13,0 C 12,2 C 8,9 C 88 % 1025,5 hPa 0,0 l/m 0 min 0 min 0 W/m 6,4 km/h (2 Bft) 100,00 %
04.10.2023 01:54 13,0 C 12,2 C 8,9 C 88 % 1025,5 hPa 0,0 l/m 0 min 0 min 0 W/m 6,4 km/h (2 Bft) 95,83 %
04.10.2023 01:56 13,0 C 12,2 C 8,9 C 88 % 1025,6 hPa 0,0 l/m 0 min 0 min 0 W/m 12,9 km/h (3 Bft) 98,08 %
04.10.2023 01:58 13,0 C 12,2 C 8,9 C 88 % 1025,6 hPa 0,0 l/m 0 min 0 min 0 W/m 12,9 km/h (3 Bft) 100,00 %
04.10.2023 02:00 13,0 C 12,2 C 8,9 C 88 % 1025,6 hPa 0,0 l/m 0 min 0 min 0 W/m 9,7 km/h (2 Bft) 100,00 %
04.10.2023 02:02 12,9 C 12,2 C 8,9 C 88 % 1025,6 hPa 0,0 l/m 0 min 0 min 0 W/m 9,7 km/h (2 Bft) 100,00 %
04.10.2023 02:04 12,9 C 12,2 C 8,9 C 88 % 1025,6 hPa 0,0 l/m 0 min 0 min 0 W/m 12,9 km/h (3 Bft) 97,87 %
04.10.2023 02:06 12,9 C 12,2 C 8,9 C 88 % 1025,6 hPa 0,0 l/m 0 min 0 min 0 W/m 9,7 km/h (2 Bft) 100,00 %
04.10.2023 02:08 12,9 C 12,2 C 8,9 C 88 % 1025,6 hPa 0,0 l/m 0 min 0 min 0 W/m 12,9 km/h (3 Bft) 100,00 %
04.10.2023 02:10 12,9 C 12,2 C 8,9 C 88 % 1025,8 hPa 0,0 l/m 0 min 0 min 0 W/m 6,4 km/h (2 Bft) 100,00 %
04.10.2023 02:12 12,9 C 12,2 C 8,9 C 88 % 1025,8 hPa 0,0 l/m 0 min 0 min 0 W/m 9,7 km/h (2 Bft) 100,00 %
04.10.2023 02:14 12,9 C 12,2 C 8,9 C 88 % 1025,8 hPa 0,0 l/m 0 min 0 min 0 W/m 16,1 km/h (3 Bft) 100,00 %
04.10.2023 02:16 12,8 C 12,2 C 8,9 C 88 % 1025,8 hPa 0,0 l/m 0 min 0 min 0 W/m 12,9 km/h (3 Bft) 100,00 %
04.10.2023 02:18 12,8 C 12,2 C 8,9 C 88 % 1025,8 hPa 0,0 l/m 0 min 0 min 0 W/m 6,4 km/h (2 Bft) 100,00 %
04.10.2023 02:22 12,8 C 11,7 C 8,9 C 88 % 1025,8 hPa 0,0 l/m 0 min 0 min 0 W/m 6,4 km/h (2 Bft) 98,96 %
04.10.2023 02:24 12,8 C 11,7 C 8,9 C 88 % 1025,8 hPa 0,0 l/m 0 min 0 min 0 W/m 6,4 km/h (2 Bft) 100,00 %
04.10.2023 02:26 12,8 C 11,7 C 8,9 C 89 % 1025,8 hPa 0,0 l/m 0 min 0 min 0 W/m 9,7 km/h (2 Bft) 100,00 %
04.10.2023 02:28 12,8 C 11,7 C 8,9 C 89 % 1025,8 hPa 0,0 l/m 0 min 0 min 0 W/m 6,4 km/h (2 Bft) 100,00 %
04.10.2023 02:30 12,7 C 11,7 C 8,9 C 89 % 1025,9 hPa 0,0 l/m 0 min 0 min 0 W/m 9,7 km/h (2 Bft) 100,00 %
04.10.2023 02:32 12,7 C 11,7 C 8,9 C 89 % 1025,9 hPa 0,0 l/m 0 min 0 min 0 W/m 6,4 km/h (2 Bft) 100,00 %
04.10.2023 02:34 12,7 C 11,7 C 8,9 C 89 % 1025,9 hPa 0,0 l/m 0 min 0 min 0 W/m 6,4 km/h (2 Bft) 100,00 %
04.10.2023 02:36 12,7 C 11,7 C 8,9 C 89 % 1026,0 hPa 0,0 l/m 0 min 0 min 0 W/m 12,9 km/h (3 Bft) 100,00 %
04.10.2023 02:38 12,7 C 11,7 C 8,9 C 89 % 1026,0 hPa 0,0 l/m 0 min 0 min 0 W/m 6,4 km/h (2 Bft) 100,00 %
04.10.2023 02:40 12,7 C 11,7 C 8,9 C 89 % 1026,0 hPa 0,0 l/m 0 min 0 min 0 W/m 16,1 km/h (3 Bft) 100,00 %
04.10.2023 02:42 12,7 C 11,7 C 8,9 C 89 % 1026,0 hPa 0,0 l/m 0 min 0 min 0 W/m 12,9 km/h (3 Bft) 100,00 %
04.10.2023 02:44 12,7 C 11,7 C 8,9 C 89 % 1026,0 hPa 0,0 l/m 0 min 0 min 0 W/m 12,9 km/h (3 Bft) 100,00 %
04.10.2023 02:46 12,7 C 11,7 C 8,9 C 89 % 1026,1 hPa 0,0 l/m 0 min 0 min 0 W/m 12,9 km/h (3 Bft) 100,00 %
04.10.2023 02:48 12,7 C 11,7 C 8,9 C 89 % 1026,1 hPa 0,0 l/m 0 min 0 min 0 W/m 6,4 km/h (2 Bft) 100,00 %
04.10.2023 02:50 12,7 C 11,7 C 8,9 C 90 % 1026,1 hPa 0,0 l/m 0 min 0 min 0 W/m 16,1 km/h (3 Bft) 100,00 %
04.10.2023 02:52 12,6 C 11,7 C 8,9 C 90 % 1026,1 hPa 0,0 l/m 0 min 0 min 0 W/m 6,4 km/h (2 Bft) 97,87 %
04.10.2023 02:54 12,6 C 11,7 C 8,9 C 90 % 1026,1 hPa 0,0 l/m 0 min 0 min 0 W/m 12,9 km/h (3 Bft) 100,00 %
04.10.2023 02:56 12,6 C 11,7 C 8,9 C 90 % 1026,2 hPa 0,0 l/m 0 min 0 min 0 W/m 6,4 km/h (2 Bft) 97,87 %
04.10.2023 02:58 12,6 C 11,7 C 8,9 C 90 % 1026,2 hPa 0,0 l/m 0 min 0 min 0 W/m 9,7 km/h (2 Bft) 95,74 %
04.10.2023 03:00 12,6 C 11,7 C 8,9 C 90 % 1026,1 hPa 0,0 l/m 0 min 0 min 0 W/m 16,1 km/h (3 Bft) 97,83 %
04.10.2023 03:02 12,6 C 11,7 C 8,9 C 90 % 1026,2 hPa 0,0 l/m 0 min 0 min 0 W/m 6,4 km/h (2 Bft) 95,74 %
04.10.2023 03:04 12,6 C 11,7 C 8,9 C 90 % 1026,1 hPa 0,0 l/m 0 min 0 min 0 W/m 16,1 km/h (3 Bft) 95,35 %
04.10.2023 03:08 12,6 C 11,7 C 8,9 C 90 % 1026,1 hPa 0,0 l/m 0 min 0 min 0 W/m 16,1 km/h (3 Bft) 96,00 %
04.10.2023 03:10 12,6 C 11,7 C 8,9 C 90 % 1026,1 hPa 0,0 l/m 0 min 0 min 0 W/m 19,3 km/h (3 Bft) 95,74 %
04.10.2023 03:12 12,6 C 11,7 C 8,9 C 90 % 1026,1 hPa 0,0 l/m 0 min 0 min 0 W/m 12,9 km/h (3 Bft) 95,65 %
04.10.2023 03:14 12,6 C 11,7 C 8,9 C 90 % 1026,1 hPa 0,0 l/m 0 min 0 min 0 W/m 12,9 km/h (3 Bft) 91,49 %
04.10.2023 03:16 12,6 C 11,7 C 8,9 C 90 % 1026,1 hPa 0,0 l/m 0 min 0 min 0 W/m 22,5 km/h (4 Bft) 95,74 %
04.10.2023 03:18 12,5 C 11,7 C 8,9 C 90 % 1026,2 hPa 0,0 l/m 0 min 0 min 0 W/m 12,9 km/h (3 Bft) 93,62 %
04.10.2023 03:20 12,5 C 11,7 C 8,9 C 90 % 1026,1 hPa 0,0 l/m 0 min 0 min 0 W/m 12,9 km/h (3 Bft) 93,62 %
04.10.2023 03:22 12,5 C 11,7 C 8,3 C 90 % 1026,1 hPa 0,0 l/m 0 min 0 min 0 W/m 12,9 km/h (3 Bft) 95,74 %
04.10.2023 03:24 12,5 C 11,7 C 8,3 C 90 % 1026,1 hPa 0,0 l/m 0 min 0 min 0 W/m 6,4 km/h (2 Bft) 93,62 %
04.10.2023 03:26 12,5 C 11,7 C 8,3 C 90 % 1026,1 hPa 0,0 l/m 0 min 0 min 0 W/m 12,9 km/h (3 Bft) 92,68 %
04.10.2023 03:28 12,5 C 11,7 C 8,3 C 90 % 1026,1 hPa 0,0 l/m 0 min 0 min 0 W/m 12,9 km/h (3 Bft) 93,62 %
04.10.2023 03:30 12,4 C 11,7 C 8,3 C 91 % 1026,2 hPa 0,0 l/m 0 min 0 min 0 W/m 12,9 km/h (3 Bft) 93,48 %
04.10.2023 03:32 12,4 C 11,7 C 8,3 C 91 % 1026,1 hPa 0,0 l/m 0 min 0 min 0 W/m 12,9 km/h (3 Bft) 92,45 %
04.10.2023 03:34 12,4 C 11,7 C 8,3 C 91 % 1026,1 hPa 0,0 l/m 0 min 0 min 0 W/m 16,1 km/h (3 Bft) 95,74 %
04.10.2023 03:36 12,4 C 11,7 C 8,3 C 91 % 1026,1 hPa 0,0 l/m 0 min 0 min 0 W/m 6,4 km/h (2 Bft) 95,74 %
04.10.2023 03:38 12,4 C 11,7 C 8,3 C 91 % 1026,2 hPa 0,0 l/m 0 min 0 min 0 W/m 16,1 km/h (3 Bft) 93,62 %
04.10.2023 03:40 12,4 C 11,7 C 8,3 C 91 % 1026,2 hPa 0,0 l/m 0 min 0 min 0 W/m 6,4 km/h (2 Bft) 93,62 %
04.10.2023 03:42 12,4 C 11,7 C 8,3 C 91 % 1026,2 hPa 0,0 l/m 0 min 0 min 0 W/m 12,9 km/h (3 Bft) 95,65 %
04.10.2023 03:44 12,4 C 11,7 C 8,3 C 91 % 1026,2 hPa 0,0 l/m 0 min 0 min 0 W/m 9,7 km/h (2 Bft) 95,74 %
04.10.2023 03:46 12,4 C 11,7 C 8,3 C 91 % 1026,2 hPa 0,0 l/m 0 min 0 min 0 W/m 6,4 km/h (2 Bft) 91,67 %
04.10.2023 03:48 12,4 C 11,7 C 8,3 C 91 % 1026,2 hPa 0,0 l/m 0 min 0 min 0 W/m 6,4 km/h (2 Bft) 93,62 %
04.10.2023 03:50 12,4 C 11,7 C 8,3 C 91 % 1026,2 hPa 0,0 l/m 0 min 0 min 0 W/m 6,4 km/h (2 Bft) 95,74 %
04.10.2023 03:52 12,4 C 11,7 C 8,3 C 91 % 1026,2 hPa 0,0 l/m 0 min 0 min 0 W/m 6,4 km/h (2 Bft) 97,87 %
04.10.2023 03:54 12,4 C 11,7 C 8,3 C 91 % 1026,2 hPa 0,0 l/m 0 min 0 min 0 W/m 9,7 km/h (2 Bft) 97,44 %
04.10.2023 03:56 12,4 C 11,7 C 8,3 C 91 % 1026,3 hPa 0,0 l/m 0 min 0 min 0 W/m 16,1 km/h (3 Bft) 97,87 %
04.10.2023 03:58 12,4 C 11,7 C 8,3 C 91 % 1026,2 hPa 0,0 l/m 0 min 0 min 0 W/m 12,9 km/h (3 Bft) 97,87 %
04.10.2023 04:00 12,4 C 11,7 C 8,3 C 91 % 1026,2 hPa 0,0 l/m 0 min 0 min 0 W/m 12,9 km/h (3 Bft) 97,83 %
04.10.2023 04:02 12,4 C 11,7 C 8,3 C 91 % 1026,3 hPa 0,0 l/m 0 min 0 min 0 W/m 9,7 km/h (2 Bft) 100,00 %
04.10.2023 04:04 12,4 C 11,7 C 8,3 C 91 % 1026,3 hPa 0,0 l/m 0 min 0 min 0 W/m 12,9 km/h (3 Bft) 100,00 %
04.10.2023 04:06 12,4 C 11,7 C 8,3 C 91 % 1026,2 hPa 0,0 l/m 0 min 0 min 0 W/m 12,9 km/h (3 Bft) 97,87 %
04.10.2023 04:08 12,4 C 11,7 C 8,3 C 91 % 1026,2 hPa 0,0 l/m 0 min 0 min 0 W/m 6,4 km/h (2 Bft) 100,00 %
04.10.2023 04:10 12,4 C 11,7 C 8,3 C 91 % 1026,2 hPa 0,0 l/m 0 min 0 min 0 W/m 19,3 km/h (3 Bft) 100,00 %
04.10.2023 04:12 12,4 C 11,7 C 8,3 C 91 % 1026,2 hPa 0,0 l/m 0 min 0 min 0 W/m 12,9 km/h (3 Bft) 100,00 %
04.10.2023 04:14 12,4 C 11,7 C 8,3 C 91 % 1026,2 hPa 0,0 l/m 0 min 0 min 0 W/m 6,4 km/h (2 Bft) 100,00 %
04.10.2023 04:16 12,4 C 11,7 C 8,3 C 92 % 1026,3 hPa 0,0 l/m 0 min 0 min 0 W/m 12,9 km/h (3 Bft) 100,00 %
04.10.2023 04:18 12,4 C 11,7 C 8,3 C 92 % 1026,3 hPa 0,0 l/m 0 min 0 min 0 W/m 12,9 km/h (3 Bft) 100,00 %
04.10.2023 04:20 12,4 C 11,7 C 8,3 C 92 % 1026,3 hPa 0,0 l/m 0 min 0 min 0 W/m 6,4 km/h (2 Bft) 100,00 %
04.10.2023 04:22 12,4 C 11,7 C 8,3 C 92 % 1026,3 hPa 0,0 l/m 0 min 0 min 0 W/m 12,9 km/h (3 Bft) 100,00 %
04.10.2023 04:24 12,4 C 11,7 C 8,9 C 92 % 1026,3 hPa 0,0 l/m 0 min 0 min 0 W/m 9,7 km/h (2 Bft) 100,00 %
04.10.2023 04:26 12,4 C 11,7 C 8,9 C 92 % 1026,2 hPa 0,0 l/m 0 min 0 min 0 W/m 3,2 km/h (1 Bft) 100,00 %
04.10.2023 04:28 12,4 C 11,7 C 8,9 C 92 % 1026,3 hPa 0,0 l/m 0 min 0 min 0 W/m 12,9 km/h (3 Bft) 97,87 %
04.10.2023 04:30 12,4 C 11,7 C 8,9 C 92 % 1026,3 hPa 0,0 l/m 0 min 0 min 0 W/m 6,4 km/h (2 Bft) 100,00 %
04.10.2023 04:32 12,4 C 11,7 C 8,9 C 92 % 1026,2 hPa 0,0 l/m 0 min 0 min 0 W/m 6,4 km/h (2 Bft) 97,87 %
04.10.2023 04:34 12,5 C 11,7 C 8,9 C 92 % 1026,2 hPa 0,0 l/m 0 min 0 min 0 W/m 19,3 km/h (3 Bft) 100,00 %
04.10.2023 04:36 12,5 C 11,7 C 8,9 C 92 % 1026,2 hPa 0,0 l/m 0 min 0 min 0 W/m 16,1 km/h (3 Bft) 97,87 %
04.10.2023 04:38 12,5 C 11,7 C 8,9 C 92 % 1026,2 hPa 0,0 l/m 0 min 0 min 0 W/m 12,9 km/h (3 Bft) 100,00 %
04.10.2023 04:40 12,5 C 11,7 C 8,9 C 92 % 1026,2 hPa 0,0 l/m 0 min 0 min 0 W/m 9,7 km/h (2 Bft) 100,00 %
04.10.2023 04:42 12,5 C 11,7 C 8,9 C 92 % 1026,2 hPa 0,0 l/m 0 min 0 min 0 W/m 12,9 km/h (3 Bft) 100,00 %
04.10.2023 04:44 12,6 C 11,7 C 8,9 C 92 % 1026,2 hPa 0,0 l/m 0 min 0 min 0 W/m 6,4 km/h (2 Bft) 97,87 %
04.10.2023 04:46 12,6 C 11,7 C 8,9 C 92 % 1026,2 hPa 0,0 l/m 0 min 0 min 0 W/m 6,4 km/h (2 Bft) 100,00 %
04.10.2023 04:48 12,6 C 11,7 C 8,9 C 92 % 1026,2 hPa 0,0 l/m 0 min 0 min 0 W/m 9,7 km/h (2 Bft) 100,00 %
04.10.2023 04:50 12,6 C 12,2 C 8,9 C 92 % 1026,2 hPa 0,0 l/m 0 min 0 min 0 W/m 6,4 km/h (2 Bft) 97,87 %
04.10.2023 04:52 12,6 C 11,7 C 8,9 C 92 % 1026,3 hPa 0,0 l/m 0 min 0 min 0 W/m 16,1 km/h (3 Bft) 100,00 %
04.10.2023 04:54 12,6 C 12,2 C 8,9 C 92 % 1026,2 hPa 0,0 l/m 0 min 0 min 0 W/m 12,9 km/h (3 Bft) 100,00 %
04.10.2023 04:56 12,6 C 12,2 C 8,9 C 92 % 1026,2 hPa 0,0 l/m 0 min 0 min 0 W/m 6,4 km/h (2 Bft) 97,96 %
04.10.2023 04:58 12,6 C 12,2 C 8,9 C 92 % 1026,2 hPa 0,0 l/m 0 min 0 min 0 W/m 6,4 km/h (2 Bft) 100,00 %
04.10.2023 05:00 12,6 C 12,2 C 8,9 C 92 % 1026,2 hPa 0,0 l/m 0 min 0 min 0 W/m 12,9 km/h (3 Bft) 97,83 %
04.10.2023 05:02 12,6 C 12,2 C 8,9 C 92 % 1026,2 hPa 0,0 l/m 0 min 0 min 0 W/m 9,7 km/h (2 Bft) 97,87 %
04.10.2023 05:04 12,6 C 12,2 C 8,9 C 92 % 1026,2 hPa 0,0 l/m 0 min 0 min 0 W/m 12,9 km/h (3 Bft) 97,83 %
04.10.2023 05:06 12,6 C 12,2 C 8,9 C 92 % 1026,2 hPa 0,0 l/m 0 min 0 min 0 W/m 9,7 km/h (2 Bft) 97,87 %
04.10.2023 05:08 12,6 C 12,2 C 8,9 C 92 % 1026,2 hPa 0,0 l/m 0 min 0 min 0 W/m 12,9 km/h (3 Bft) 97,83 %
04.10.2023 05:10 12,7 C 12,2 C 8,9 C 92 % 1026,3 hPa 0,0 l/m 0 min 0 min 0 W/m 6,4 km/h (2 Bft) 97,87 %
04.10.2023 05:12 12,7 C 12,2 C 8,9 C 92 % 1026,2 hPa 0,0 l/m 0 min 0 min 0 W/m 16,1 km/h (3 Bft) 97,87 %
04.10.2023 05:14 12,7 C 12,2 C 8,9 C 92 % 1026,2 hPa 0,0 l/m 0 min 0 min 0 W/m 6,4 km/h (2 Bft) 97,87 %
04.10.2023 05:16 12,7 C 12,2 C 8,9 C 92 % 1026,2 hPa 0,0 l/m 0 min 0 min 0 W/m 19,3 km/h (3 Bft) 97,87 %
04.10.2023 05:18 12,7 C 12,2 C 8,9 C 92 % 1026,2 hPa 0,0 l/m 0 min 0 min 0 W/m 6,4 km/h (2 Bft) 95,74 %
04.10.2023 05:20 12,7 C 12,2 C 8,9 C 92 % 1026,2 hPa 0,0 l/m 0 min 0 min 0 W/m 12,9 km/h (3 Bft) 97,87 %
04.10.2023 05:22 12,7 C 12,2 C 8,9 C 92 % 1026,2 hPa 0,0 l/m 0 min 0 min 0 W/m 6,4 km/h (2 Bft) 97,83 %
04.10.2023 05:24 12,7 C 12,2 C 8,9 C 92 % 1026,2 hPa 0,0 l/m 0 min 0 min 0 W/m 12,9 km/h (3 Bft) 95,74 %
04.10.2023 05:26 12,7 C 12,2 C 8,9 C 92 % 1026,2 hPa 0,0 l/m 0 min 0 min 0 W/m 6,4 km/h (2 Bft) 97,87 %
04.10.2023 05:28 12,7 C 12,2 C 8,9 C 92 % 1026,2 hPa 0,0 l/m 0 min 0 min 0 W/m 9,7 km/h (2 Bft) 97,87 %
04.10.2023 05:30 12,7 C 12,2 C 8,9 C 92 % 1026,2 hPa 0,0 l/m 0 min 0 min 0 W/m 16,1 km/h (3 Bft) 100,00 %
04.10.2023 05:32 12,7 C 12,2 C 8,9 C 92 % 1026,2 hPa 0,0 l/m 0 min 0 min 0 W/m 6,4 km/h (2 Bft) 97,87 %
04.10.2023 05:34 12,7 C 12,2 C 8,9 C 92 % 1026,3 hPa 0,0 l/m 0 min 0 min 0 W/m 6,4 km/h (2 Bft) 97,87 %
04.10.2023 05:36 12,7 C 12,2 C 8,9 C 92 % 1026,3 hPa 0,0 l/m 0 min 0 min 0 W/m 12,9 km/h (3 Bft) 100,00 %
04.10.2023 05:38 12,7 C 12,2 C 8,9 C 92 % 1026,3 hPa 0,0 l/m 0 min 0 min 0 W/m 6,4 km/h (2 Bft) 100,00 %
04.10.2023 05:40 12,7 C 12,2 C 8,9 C 92 % 1026,3 hPa 0,0 l/m 0 min 0 min 0 W/m 22,5 km/h (4 Bft) 100,00 %
04.10.2023 05:42 12,7 C 12,2 C 8,9 C 92 % 1026,3 hPa 0,0 l/m 0 min 0 min 0 W/m 16,1 km/h (3 Bft) 97,87 %
04.10.2023 05:44 12,7 C 12,2 C 8,9 C 92 % 1026,4 hPa 0,0 l/m 0 min 0 min 0 W/m 12,9 km/h (3 Bft) 95,74 %
04.10.2023 05:46 12,7 C 12,2 C 8,9 C 92 % 1026,4 hPa 0,0 l/m 0 min 0 min 0 W/m 16,1 km/h (3 Bft) 100,00 %
04.10.2023 05:48 12,7 C 12,2 C 8,9 C 92 % 1026,4 hPa 0,0 l/m 0 min 0 min 0 W/m 6,4 km/h (2 Bft) 97,87 %
04.10.2023 05:50 12,7 C 12,2 C 8,9 C 92 % 1026,4 hPa 0,0 l/m 0 min 0 min 0 W/m 6,4 km/h (2 Bft) 97,87 %
04.10.2023 05:52 12,7 C 12,2 C 8,9 C 92 % 1026,3 hPa 0,0 l/m 0 min 0 min 0 W/m 9,7 km/h (2 Bft) 95,65 %
04.10.2023 05:54 12,7 C 12,2 C 8,9 C 92 % 1026,3 hPa 0,0 l/m 0 min 0 min 0 W/m 9,7 km/h (2 Bft) 97,87 %
04.10.2023 05:56 12,7 C 11,7 C 8,9 C 92 % 1026,4 hPa 0,0 l/m 0 min 0 min 0 W/m 12,9 km/h (3 Bft) 96,00 %
04.10.2023 05:58 12,6 C 11,7 C 8,9 C 92 % 1026,4 hPa 0,0 l/m 0 min 0 min 0 W/m 12,9 km/h (3 Bft) 93,48 %
04.10.2023 06:00 12,6 C 11,7 C 8,9 C 92 % 1026,4 hPa 0,0 l/m 0 min 0 min 0 W/m 6,4 km/h (2 Bft) 95,74 %
04.10.2023 06:02 12,6 C 11,7 C 8,9 C 92 % 1026,4 hPa 0,0 l/m 0 min 0 min 0 W/m 12,9 km/h (3 Bft) 95,74 %
04.10.2023 06:04 12,6 C 11,7 C 8,9 C 92 % 1026,4 hPa 0,0 l/m 0 min 0 min 0 W/m 6,4 km/h (2 Bft) 95,45 %
04.10.2023 06:08 12,6 C 11,7 C 8,9 C 92 % 1026,5 hPa 0,0 l/m 0 min 0 min 0 W/m 12,9 km/h (3 Bft) 93,75 %
04.10.2023 06:10 12,6 C 11,7 C 8,3 C 92 % 1026,4 hPa 0,0 l/m 0 min 0 min 0 W/m 9,7 km/h (2 Bft) 95,74 %
04.10.2023 06:12 12,5 C 11,7 C 8,3 C 92 % 1026,4 hPa 0,0 l/m 0 min 0 min 0 W/m 6,4 km/h (2 Bft) 95,65 %
04.10.2023 06:16 12,4 C 11,7 C 8,3 C 92 % 1026,5 hPa 0,0 l/m 0 min 0 min 0 W/m 6,4 km/h (2 Bft) 95,74 %
04.10.2023 06:18 12,4 C 11,7 C 8,3 C 92 % 1026,5 hPa 0,0 l/m 0 min 0 min 0 W/m 6,4 km/h (2 Bft) 95,74 %
04.10.2023 06:20 12,4 C 11,7 C 8,3 C 92 % 1026,5 hPa 0,0 l/m 0 min 0 min 0 W/m 16,1 km/h (3 Bft) 97,87 %
04.10.2023 06:22 12,3 C 11,7 C 8,3 C 92 % 1026,5 hPa 0,0 l/m 0 min 0 min 0 W/m 12,9 km/h (3 Bft) 95,74 %
04.10.2023 06:24 12,3 C 11,7 C 8,3 C 92 % 1026,6 hPa 0,0 l/m 0 min 0 min 0 W/m 9,7 km/h (2 Bft) 93,62 %
04.10.2023 06:26 12,3 C 11,7 C 8,3 C 92 % 1026,5 hPa 0,0 l/m 0 min 0 min 0 W/m 12,9 km/h (3 Bft) 95,65 %
04.10.2023 06:28 12,3 C 11,1 C 8,3 C 92 % 1026,4 hPa 0,0 l/m 0 min 0 min 0 W/m 3,2 km/h (1 Bft) 95,74 %
04.10.2023 06:30 12,2 C 11,1 C 8,3 C 92 % 1026,5 hPa 0,0 l/m 0 min 0 min 0 W/m 16,1 km/h (3 Bft) 93,62 %
04.10.2023 06:32 12,2 C 11,1 C 8,3 C 92 % 1026,5 hPa 0,0 l/m 0 min 0 min 0 W/m 6,4 km/h (2 Bft) 97,87 %
04.10.2023 06:34 12,2 C 11,1 C 8,3 C 92 % 1026,5 hPa 0,0 l/m 0 min 0 min 0 W/m 6,4 km/h (2 Bft) 97,87 %
04.10.2023 06:36 12,2 C 11,1 C 8,3 C 92 % 1026,5 hPa 0,0 l/m 0 min 0 min 0 W/m 6,4 km/h (2 Bft) 97,87 %
04.10.2023 06:38 12,1 C 11,1 C 8,3 C 92 % 1026,4 hPa 0,0 l/m 0 min 0 min 0 W/m 6,4 km/h (2 Bft) 97,87 %
04.10.2023 06:40 12,1 C 11,1 C 8,3 C 92 % 1026,5 hPa 0,0 l/m 0 min 0 min 0 W/m 9,7 km/h (2 Bft) 97,87 %
04.10.2023 06:42 12,1 C 11,1 C 8,3 C 93 % 1026,6 hPa 0,0 l/m 0 min 0 min 0 W/m 6,4 km/h (2 Bft) 95,65 %
04.10.2023 06:44 12,1 C 11,1 C 8,3 C 93 % 1026,5 hPa 0,0 l/m 0 min 0 min 0 W/m 9,7 km/h (2 Bft) 97,87 %
04.10.2023 06:46 12,1 C 11,1 C 8,3 C 93 % 1026,5 hPa 0,0 l/m 0 min 0 min 0 W/m 6,4 km/h (2 Bft) 97,87 %
04.10.2023 06:48 12,1 C 11,1 C 8,3 C 93 % 1026,4 hPa 0,0 l/m 0 min 0 min 0 W/m 16,1 km/h (3 Bft) 95,74 %
04.10.2023 06:50 12,0 C 11,1 C 8,3 C 93 % 1026,5 hPa 0,0 l/m 0 min 0 min 0 W/m 12,9 km/h (3 Bft) 95,74 %
04.10.2023 06:52 12,0 C 11,1 C 8,3 C 93 % 1026,5 hPa 0,0 l/m 0 min 0 min 0 W/m 6,4 km/h (2 Bft) 97,87 %
04.10.2023 06:54 12,0 C 11,1 C 8,3 C 93 % 1026,5 hPa 0,0 l/m 0 min 0 min 0 W/m 9,7 km/h (2 Bft) 97,87 %
04.10.2023 06:56 11,9 C 11,1 C 7,8 C 93 % 1026,5 hPa 0,0 l/m 0 min 0 min 0 W/m 6,4 km/h (2 Bft) 97,87 %
04.10.2023 06:58 11,9 C 11,1 C 7,8 C 93 % 1026,5 hPa 0,0 l/m 0 min 0 min 0 W/m 3,2 km/h (1 Bft) 95,74 %
04.10.2023 07:00 11,9 C 11,1 C 7,8 C 93 % 1026,5 hPa 0,0 l/m 0 min 0 min 0 W/m 6,4 km/h (2 Bft) 95,74 %
04.10.2023 07:02 11,9 C 11,1 C 7,8 C 93 % 1026,5 hPa 0,0 l/m 0 min 0 min 0 W/m 12,9 km/h (3 Bft) 97,87 %
04.10.2023 07:04 11,9 C 11,1 C 7,8 C 93 % 1026,5 hPa 0,0 l/m 0 min 0 min 0 W/m 12,9 km/h (3 Bft) 94,23 %
04.10.2023 07:08 11,8 C 11,1 C 7,8 C 93 % 1026,4 hPa 0,0 l/m 0 min 0 min 0 W/m 12,9 km/h (3 Bft) 95,83 %
04.10.2023 07:09 11,8 C 11,1 C 7,8 C 93 % 1026,5 hPa 0,0 l/m 0 min 0 min 0 W/m 12,9 km/h (3 Bft) 91,67 %
04.10.2023 07:12 11,8 C 11,1 C 7,8 C 93 % 1026,4 hPa 0,0 l/m 0 min 0 min 0 W/m 6,4 km/h (2 Bft) 98,53 %
04.10.2023 07:14 11,8 C 11,1 C 7,8 C 93 % 1026,4 hPa 0,0 l/m 0 min 0 min 0 W/m 9,7 km/h (2 Bft) 97,87 %
04.10.2023 07:16 11,8 C 11,1 C 7,8 C 93 % 1026,4 hPa 0,0 l/m 0 min 0 min 0 W/m 6,4 km/h (2 Bft) 97,87 %
04.10.2023 07:18 11,8 C 11,1 C 7,8 C 93 % 1026,3 hPa 0,0 l/m 0 min 0 min 0 W/m 9,7 km/h (2 Bft) 97,87 %
04.10.2023 07:20 11,8 C 11,1 C 7,8 C 93 % 1026,4 hPa 0,0 l/m 0 min 0 min 0 W/m 12,9 km/h (3 Bft) 100,00 %
04.10.2023 07:22 11,8 C 11,1 C 7,8 C 94 % 1026,4 hPa 0,0 l/m 0 min 0 min 0 W/m 6,4 km/h (2 Bft) 100,00 %
04.10.2023 07:24 11,8 C 11,1 C 7,8 C 94 % 1026,5 hPa 0,0 l/m 0 min 0 min 0 W/m 12,9 km/h (3 Bft) 100,00 %
04.10.2023 07:26 11,7 C 11,1 C 7,8 C 94 % 1026,5 hPa 0,0 l/m 0 min 0 min 0 W/m 6,4 km/h (2 Bft) 100,00 %
04.10.2023 07:28 11,7 C 11,1 C 7,8 C 93 % 1026,6 hPa 0,0 l/m 0 min 0 min 0 W/m 3,2 km/h (1 Bft) 100,00 %
04.10.2023 07:30 11,7 C 10,6 C 7,8 C 93 % 1026,6 hPa 0,0 l/m 0 min 0 min 0 W/m 6,4 km/h (2 Bft) 100,00 %
04.10.2023 07:32 11,7 C 11,1 C 7,8 C 94 % 1026,6 hPa 0,0 l/m 0 min 0 min 0 W/m 9,7 km/h (2 Bft) 100,00 %
04.10.2023 07:34 11,7 C 10,6 C 7,8 C 94 % 1026,6 hPa 0,0 l/m 0 min 0 min 0 W/m 6,4 km/h (2 Bft) 97,87 %
04.10.2023 07:36 11,7 C 10,6 C 7,8 C 94 % 1026,5 hPa 0,0 l/m 0 min 0 min 0 W/m 12,9 km/h (3 Bft) 97,87 %
04.10.2023 07:38 11,7 C 10,6 C 7,8 C 94 % 1026,7 hPa 0,0 l/m 0 min 0 min 0 W/m 12,9 km/h (3 Bft) 100,00 %
04.10.2023 07:40 11,6 C 10,6 C 7,8 C 94 % 1026,5 hPa 0,0 l/m 0 min 0 min 0 W/m 12,9 km/h (3 Bft) 100,00 %
04.10.2023 07:42 11,6 C 10,6 C 7,8 C 94 % 1026,5 hPa 0,0 l/m 0 min 0 min 0 W/m 6,4 km/h (2 Bft) 100,00 %
04.10.2023 07:44 11,6 C 10,6 C 7,8 C 94 % 1026,5 hPa 0,0 l/m 0 min 0 min 0 W/m 16,1 km/h (3 Bft) 100,00 %
04.10.2023 07:46 11,6 C 10,6 C 7,8 C 94 % 1026,5 hPa 0,0 l/m 0 min 0 min 3 W/m 19,3 km/h (3 Bft) 100,00 %
04.10.2023 07:48 11,6 C 11,1 C 7,8 C 94 % 1026,6 hPa 0,0 l/m 0 min 0 min 5 W/m 6,4 km/h (2 Bft) 100,00 %
04.10.2023 07:50 11,6 C 10,6 C 7,8 C 94 % 1026,7 hPa 0,0 l/m 0 min 0 min 6 W/m 6,4 km/h (2 Bft) 97,87 %
04.10.2023 07:52 11,6 C 10,6 C 7,8 C 94 % 1026,7 hPa 0,0 l/m 0 min 0 min 7 W/m 6,4 km/h (2 Bft) 100,00 %
04.10.2023 07:54 11,6 C 10,6 C 7,8 C 94 % 1026,7 hPa 0,0 l/m 0 min 0 min 9 W/m 6,4 km/h (2 Bft) 97,96 %
04.10.2023 07:56 11,6 C 10,6 C 7,8 C 94 % 1026,7 hPa 0,0 l/m 0 min 0 min 10 W/m 3,2 km/h (1 Bft) 100,00 %
04.10.2023 07:58 11,6 C 11,1 C 7,8 C 94 % 1026,8 hPa 0,0 l/m 0 min 0 min 11 W/m 6,4 km/h (2 Bft) 100,00 %
04.10.2023 08:00 11,6 C 11,1 C 7,8 C 94 % 1026,8 hPa 0,0 l/m 0 min 0 min 12 W/m 9,7 km/h (2 Bft) 97,87 %
04.10.2023 08:02 11,6 C 10,6 C 7,8 C 94 % 1027,0 hPa 0,0 l/m 0 min 0 min 12 W/m 12,9 km/h (3 Bft) 95,74 %
04.10.2023 08:04 11,5 C 10,6 C 7,8 C 94 % 1027,0 hPa 0,0 l/m 0 min 0 min 14 W/m 9,7 km/h (2 Bft) 96,23 %
04.10.2023 08:08 11,5 C 10,6 C 7,8 C 94 % 1027,0 hPa 0,0 l/m 0 min 0 min 15 W/m 9,7 km/h (2 Bft) 100,00 %
04.10.2023 08:09 11,5 C 10,6 C 7,8 C 94 % 1027,1 hPa 0,0 l/m 0 min 0 min 16 W/m 6,4 km/h (2 Bft) 100,00 %
04.10.2023 08:10 11,5 C 10,6 C 7,8 C 94 % 1027,1 hPa 0,0 l/m 0 min 0 min 16 W/m 6,4 km/h (2 Bft) 100,00 %
04.10.2023 08:14 11,5 C 10,6 C 7,8 C 94 % 1027,0 hPa 0,0 l/m 0 min 0 min 19 W/m 3,2 km/h (1 Bft) 100,00 %
04.10.2023 08:16 11,5 C 10,6 C 7,8 C 94 % 1027,0 hPa 0,0 l/m 0 min 0 min 20 W/m 6,4 km/h (2 Bft) 100,00 %
04.10.2023 08:18 11,5 C 10,6 C 7,8 C 94 % 1027,0 hPa 0,0 l/m 0 min 0 min 21 W/m 6,4 km/h (2 Bft) 97,87 %
04.10.2023 08:20 11,5 C 10,6 C 7,8 C 94 % 1027,0 hPa 0,0 l/m 0 min 0 min 22 W/m 3,2 km/h (1 Bft) 44,74 %
04.10.2023 08:22 11,4 C 11,1 C 7,8 C 94 % 1027,0 hPa 0,0 l/m 0 min 0 min 24 W/m 12,9 km/h (3 Bft) 97,87 %
04.10.2023 08:24 11,5 C 11,1 C 7,8 C 94 % 1027,0 hPa 0,0 l/m 0 min 0 min 25 W/m 6,4 km/h (2 Bft) 97,87 %
04.10.2023 08:26 11,5 C 11,1 C 7,8 C 94 % 1027,0 hPa 0,0 l/m 0 min 0 min 26 W/m 6,4 km/h (2 Bft) 97,83 %
04.10.2023 08:28 11,5 C 11,1 C 7,8 C 94 % 1027,1 hPa 0,0 l/m 0 min 0 min 27 W/m 6,4 km/h (2 Bft) 95,74 %
04.10.2023 08:30 11,5 C 11,1 C 7,8 C 94 % 1027,2 hPa 0,0 l/m 0 min 0 min 28 W/m 6,4 km/h (2 Bft) 98,15 %
04.10.2023 08:32 11,5 C 11,1 C 7,8 C 94 % 1027,2 hPa 0,0 l/m 0 min 0 min 29 W/m 9,7 km/h (2 Bft) 97,87 %
04.10.2023 08:34 11,5 C 11,1 C 7,8 C 94 % 1027,3 hPa 0,0 l/m 0 min 0 min 30 W/m 6,4 km/h (2 Bft) 95,65 %
04.10.2023 08:36 11,5 C 11,1 C 7,8 C 94 % 1027,3 hPa 0,0 l/m 0 min 0 min 31 W/m 6,4 km/h (2 Bft) 97,87 %
04.10.2023 08:38 11,6 C 11,1 C 7,8 C 94 % 1027,3 hPa 0,0 l/m 0 min 0 min 32 W/m 12,9 km/h (3 Bft) 95,74 %
04.10.2023 08:40 11,6 C 11,1 C 7,8 C 94 % 1027,3 hPa 0,0 l/m 0 min 0 min 33 W/m 6,4 km/h (2 Bft) 95,74 %
04.10.2023 08:42 11,6 C 11,1 C 7,8 C 94 % 1027,4 hPa 0,0 l/m 0 min 0 min 33 W/m 9,7 km/h (2 Bft) 95,74 %
04.10.2023 08:44 11,6 C 11,1 C 7,8 C 94 % 1027,4 hPa 0,0 l/m 0 min 0 min 34 W/m 6,4 km/h (2 Bft) 95,74 %
04.10.2023 08:46 11,6 C 11,1 C 7,8 C 94 % 1027,4 hPa 0,0 l/m 0 min 0 min 36 W/m 12,9 km/h (3 Bft) 95,74 %
04.10.2023 08:48 11,6 C 11,1 C 7,8 C 94 % 1027,5 hPa 0,0 l/m 0 min 0 min 37 W/m 6,4 km/h (2 Bft) 95,65 %
04.10.2023 08:50 11,7 C 11,1 C 8,3 C 94 % 1027,5 hPa 0,0 l/m 0 min 0 min 39 W/m 9,7 km/h (2 Bft) 93,48 %
04.10.2023 08:52 11,7 C 11,1 C 8,3 C 94 % 1027,4 hPa 0,0 l/m 0 min 0 min 39 W/m 12,9 km/h (3 Bft) 95,74 %
04.10.2023 08:54 11,7 C 11,7 C 8,3 C 94 % 1027,5 hPa 0,0 l/m 0 min 0 min 40 W/m 12,9 km/h (3 Bft) 95,74 %
04.10.2023 08:56 11,7 C 11,7 C 8,3 C 94 % 1027,5 hPa 0,0 l/m 0 min 0 min 40 W/m 3,2 km/h (1 Bft) 93,62 %
04.10.2023 08:58 11,8 C 11,7 C 8,3 C 94 % 1027,6 hPa 0,0 l/m 0 min 0 min 42 W/m 6,4 km/h (2 Bft) 95,74 %
04.10.2023 09:00 11,8 C 11,7 C 8,3 C 94 % 1027,6 hPa 0,0 l/m 0 min 0 min 43 W/m 16,1 km/h (3 Bft) 95,74 %
04.10.2023 09:04 11,8 C 11,7 C 8,3 C 94 % 1027,6 hPa 0,0 l/m 0 min 0 min 44 W/m 3,2 km/h (1 Bft) 97,27 %
04.10.2023 09:06 11,9 C 11,7 C 8,3 C 94 % 1027,7 hPa 0,0 l/m 0 min 0 min 46 W/m 12,9 km/h (3 Bft) 94,67 %
04.10.2023 09:08 11,9 C 11,7 C 8,3 C 94 % 1027,7 hPa 0,0 l/m 0 min 0 min 46 W/m 12,9 km/h (3 Bft) 97,56 %
04.10.2023 09:10 11,9 C 11,7 C 8,3 C 94 % 1027,7 hPa 0,0 l/m 0 min 0 min 47 W/m 6,4 km/h (2 Bft) 97,92 %
04.10.2023 09:12 11,9 C 11,7 C 8,3 C 94 % 1027,7 hPa 0,0 l/m 0 min 0 min 47 W/m 12,9 km/h (3 Bft) 97,87 %
04.10.2023 09:14 12,0 C 11,7 C 8,3 C 94 % 1027,7 hPa 0,0 l/m 0 min 0 min 49 W/m 6,4 km/h (2 Bft) 97,96 %
04.10.2023 09:16 12,0 C 11,7 C 8,3 C 94 % 1027,7 hPa 0,0 l/m 0 min 0 min 49 W/m 9,7 km/h (2 Bft) 97,30 %
04.10.2023 09:18 12,1 C 11,7 C 8,3 C 94 % 1027,7 hPa 0,0 l/m 0 min 0 min 51 W/m 12,9 km/h (3 Bft) 95,74 %
04.10.2023 09:20 12,1 C 11,7 C 8,3 C 94 % 1027,8 hPa 0,0 l/m 0 min 0 min 52 W/m 6,4 km/h (2 Bft) 95,74 %
04.10.2023 09:22 12,1 C 12,2 C 8,3 C 94 % 1027,8 hPa 0,0 l/m 0 min 0 min 53 W/m 12,9 km/h (3 Bft) 100,00 %
04.10.2023 09:24 12,2 C 12,2 C 8,3 C 94 % 1027,8 hPa 0,0 l/m 0 min 0 min 54 W/m 12,9 km/h (3 Bft) 97,87 %
04.10.2023 09:26 12,2 C 12,2 C 8,3 C 94 % 1027,8 hPa 0,0 l/m 0 min 0 min 66 W/m 6,4 km/h (2 Bft) 95,74 %
04.10.2023 09:28 12,3 C 12,2 C 8,3 C 94 % 1027,8 hPa 0,0 l/m 0 min 0 min 69 W/m 6,4 km/h (2 Bft) 95,65 %
04.10.2023 09:30 12,3 C 12,2 C 8,9 C 93 % 1027,8 hPa 0,0 l/m 0 min 0 min 73 W/m 19,3 km/h (3 Bft) 95,74 %
04.10.2023 09:32 12,3 C 12,2 C 8,9 C 93 % 1027,9 hPa 0,0 l/m 0 min 0 min 62 W/m 12,9 km/h (3 Bft) 97,87 %
04.10.2023 09:34 12,4 C 12,2 C 8,9 C 93 % 1027,9 hPa 0,0 l/m 0 min 0 min 58 W/m 12,9 km/h (3 Bft) 97,87 %
04.10.2023 09:36 12,4 C 12,2 C 8,9 C 93 % 1027,9 hPa 0,0 l/m 0 min 0 min 59 W/m 6,4 km/h (2 Bft) 95,74 %
04.10.2023 09:38 12,4 C 12,2 C 8,9 C 93 % 1027,9 hPa 0,0 l/m 0 min 0 min 60 W/m 6,4 km/h (2 Bft) 97,87 %
04.10.2023 09:40 12,5 C 12,2 C 8,9 C 93 % 1028,0 hPa 0,0 l/m 0 min 0 min 62 W/m 12,9 km/h (3 Bft) 97,87 %
04.10.2023 09:42 12,6 C 12,8 C 8,9 C 93 % 1027,9 hPa 0,0 l/m 0 min 0 min 66 W/m 9,7 km/h (2 Bft) 98,15 %
04.10.2023 09:44 12,6 C 12,8 C 8,9 C 93 % 1027,9 hPa 0,0 l/m 0 min 0 min 64 W/m 6,4 km/h (2 Bft) 95,74 %
04.10.2023 09:46 12,6 C 12,8 C 8,9 C 93 % 1027,9 hPa 0,0 l/m 0 min 0 min 70 W/m 19,3 km/h (3 Bft) 95,74 %
04.10.2023 09:48 12,7 C 12,8 C 8,9 C 92 % 1027,9 hPa 0,0 l/m 0 min 0 min 75 W/m 19,3 km/h (3 Bft) 97,87 %
04.10.2023 09:50 12,7 C 12,8 C 8,9 C 92 % 1028,0 hPa 0,0 l/m 0 min 0 min 70 W/m 6,4 km/h (2 Bft) 97,83 %
04.10.2023 09:52 12,8 C 12,8 C 8,9 C 92 % 1028,0 hPa 0,0 l/m 0 min 0 min 72 W/m 16,1 km/h (3 Bft) 100,00 %
04.10.2023 09:54 12,8 C 12,8 C 8,9 C 92 % 1028,0 hPa 0,0 l/m 0 min 0 min 74 W/m 9,7 km/h (2 Bft) 100,00 %
04.10.2023 09:56 12,9 C 12,8 C 8,9 C 92 % 1028,0 hPa 0,0 l/m 0 min 0 min 75 W/m 6,4 km/h (2 Bft) 100,00 %
04.10.2023 09:58 12,9 C 12,8 C 9,4 C 92 % 1028,0 hPa 0,0 l/m 0 min 0 min 74 W/m 6,4 km/h (2 Bft) 97,96 %
04.10.2023 10:00 12,9 C 12,8 C 9,4 C 92 % 1028,1 hPa 0,0 l/m 0 min 0 min 73 W/m 12,9 km/h (3 Bft) 100,00 %
04.10.2023 10:02 13,0 C 12,8 C 9,4 C 92 % 1028,0 hPa 0,0 l/m 0 min 0 min 75 W/m 12,9 km/h (3 Bft) 97,87 %
04.10.2023 10:04 13,1 C 12,8 C 9,4 C 92 % 1028,0 hPa 0,0 l/m 0 min 0 min 76 W/m 9,7 km/h (2 Bft) 100,00 %
04.10.2023 10:08 13,2 C 13,3 C 9,4 C 91 % 1027,9 hPa 0,0 l/m 0 min 0 min 79 W/m 12,9 km/h (3 Bft) 98,96 %
04.10.2023 10:09 13,2 C 13,3 C 9,4 C 91 % 1028,0 hPa 0,0 l/m 0 min 0 min 79 W/m 3,2 km/h (1 Bft) 100,00 %
04.10.2023 10:10 13,2 C 13,3 C 9,4 C 91 % 1028,0 hPa 0,0 l/m 0 min 0 min 80 W/m 12,9 km/h (3 Bft) 100,00 %
04.10.2023 10:14 13,3 C 13,3 C 9,4 C 91 % 1027,9 hPa 0,0 l/m 0 min 0 min 89 W/m 6,4 km/h (2 Bft) 100,00 %
04.10.2023 10:16 13,4 C 13,3 C 9,4 C 91 % 1027,9 hPa 0,0 l/m 0 min 0 min 93 W/m 9,7 km/h (2 Bft) 97,87 %
04.10.2023 10:18 13,4 C 13,3 C 9,4 C 91 % 1028,0 hPa 0,0 l/m 0 min 0 min 97 W/m 16,1 km/h (3 Bft) 97,87 %
04.10.2023 10:20 13,5 C 13,3 C 9,4 C 91 % 1027,9 hPa 0,0 l/m 0 min 0 min 96 W/m 12,9 km/h (3 Bft) 97,83 %
04.10.2023 10:22 13,5 C 13,3 C 10,0 C 91 % 1027,9 hPa 0,0 l/m 0 min 0 min 95 W/m 6,4 km/h (2 Bft) 100,00 %
04.10.2023 10:24 13,6 C 13,9 C 10,0 C 91 % 1028,0 hPa 0,0 l/m 0 min 0 min 84 W/m 12,9 km/h (3 Bft) 97,87 %
04.10.2023 10:26 13,6 C 13,9 C 10,0 C 91 % 1028,0 hPa 0,0 l/m 0 min 0 min 85 W/m 6,4 km/h (2 Bft) 97,87 %
04.10.2023 10:28 13,6 C 13,9 C 10,0 C 90 % 1028,1 hPa 0,0 l/m 0 min 0 min 84 W/m 9,7 km/h (2 Bft) 97,87 %
04.10.2023 10:30 13,7 C 13,9 C 10,0 C 90 % 1028,0 hPa 0,0 l/m 0 min 0 min 89 W/m 6,4 km/h (2 Bft) 97,87 %
04.10.2023 10:32 13,7 C 13,9 C 10,0 C 90 % 1028,1 hPa 0,0 l/m 0 min 0 min 117 W/m 12,9 km/h (3 Bft) 100,00 %
04.10.2023 10:34 13,8 C 13,9 C 10,0 C 90 % 1028,1 hPa 0,0 l/m 0 min 0 min 181 W/m 12,9 km/h (3 Bft) 97,83 %
04.10.2023 10:36 13,8 C 13,9 C 10,0 C 90 % 1028,1 hPa 0,0 l/m 2 min 0 min 228 W/m 9,7 km/h (2 Bft) 97,87 %
04.10.2023 10:38 13,9 C 13,9 C 10,0 C 90 % 1028,0 hPa 0,0 l/m 0 min 0 min 142 W/m 12,9 km/h (3 Bft) 95,74 %
04.10.2023 10:40 13,9 C 13,9 C 10,0 C 90 % 1028,1 hPa 0,0 l/m 2 min 0 min 241 W/m 9,7 km/h (2 Bft) 97,87 %
04.10.2023 10:42 14,0 C 14,4 C 10,0 C 90 % 1028,1 hPa 0,0 l/m 2 min 0 min 269 W/m 9,7 km/h (2 Bft) 97,87 %
04.10.2023 10:44 14,1 C 14,4 C 10,6 C 90 % 1028,1 hPa 0,0 l/m 0 min 0 min 157 W/m 9,7 km/h (2 Bft) 97,87 %
04.10.2023 10:46 14,1 C 14,4 C 10,6 C 90 % 1028,1 hPa 0,0 l/m 2 min 0 min 278 W/m 12,9 km/h (3 Bft) 97,87 %
04.10.2023 10:48 14,3 C 14,4 C 10,6 C 90 % 1028,2 hPa 0,0 l/m 0 min 0 min 191 W/m 12,9 km/h (3 Bft) 95,74 %
04.10.2023 10:50 14,3 C 14,4 C 10,6 C 90 % 1028,2 hPa 0,0 l/m 0 min 0 min 166 W/m 12,9 km/h (3 Bft) 97,83 %
04.10.2023 10:52 14,3 C 14,4 C 10,6 C 89 % 1028,2 hPa 0,0 l/m 0 min 0 min 140 W/m 12,9 km/h (3 Bft) 97,87 %
04.10.2023 10:54 14,3 C 14,4 C 10,6 C 89 % 1028,2 hPa 0,0 l/m 0 min 0 min 159 W/m 12,9 km/h (3 Bft) 97,87 %
04.10.2023 10:56 14,3 C 14,4 C 10,6 C 89 % 1028,1 hPa 0,0 l/m 0 min 0 min 162 W/m 12,9 km/h (3 Bft) 95,74 %
04.10.2023 10:58 14,4 C 15,0 C 11,1 C 89 % 1028,2 hPa 0,0 l/m 0 min 0 min 166 W/m 12,9 km/h (3 Bft) 97,30 %
04.10.2023 11:00 14,5 C 15,0 C 11,1 C 88 % 1028,1 hPa 0,0 l/m 0 min 0 min 197 W/m 9,7 km/h (2 Bft) 97,87 %
04.10.2023 11:02 14,6 C 16,1 C 11,1 C 88 % 1028,1 hPa 0,0 l/m 2 min 0 min 229 W/m 6,4 km/h (2 Bft) 97,87 %
04.10.2023 11:04 14,6 C 16,7 C 11,1 C 88 % 1028,1 hPa 0,0 l/m 2 min 0 min 238 W/m 16,1 km/h (3 Bft) 96,08 %
04.10.2023 11:06 14,7 C 16,1 C 11,1 C 88 % 1028,2 hPa 0,0 l/m 0 min 0 min 180 W/m 9,7 km/h (2 Bft) 97,92 %
04.10.2023 11:08 14,7 C 16,1 C 11,1 C 88 % 1028,1 hPa 0,0 l/m 0 min 0 min 213 W/m 12,9 km/h (3 Bft) 97,87 %
04.10.2023 11:10 14,7 C 16,1 C 11,1 C 87 % 1028,1 hPa 0,0 l/m 2 min 0 min 237 W/m 12,9 km/h (3 Bft) 94,59 %
04.10.2023 11:12 14,8 C 16,7 C 11,1 C 87 % 1028,1 hPa 0,0 l/m 2 min 0 min 252 W/m 6,4 km/h (2 Bft) 97,87 %
04.10.2023 11:14 14,8 C 16,7 C 11,7 C 87 % 1028,2 hPa 0,0 l/m 2 min 0 min 255 W/m 9,7 km/h (2 Bft) 97,87 %
04.10.2023 11:16 14,9 C 16,1 C 11,7 C 87 % 1028,2 hPa 0,0 l/m 2 min 0 min 242 W/m 19,3 km/h (3 Bft) 97,87 %
04.10.2023 11:18 14,9 C 16,1 C 11,7 C 87 % 1028,1 hPa 0,0 l/m 2 min 0 min 287 W/m 19,3 km/h (3 Bft) 97,87 %
04.10.2023 11:20 14,9 C 16,7 C 11,7 C 86 % 1028,1 hPa 0,0 l/m 2 min 0 min 368 W/m 12,9 km/h (3 Bft) 97,87 %
04.10.2023 11:22 15,0 C 16,7 C 11,7 C 86 % 1028,1 hPa 0,0 l/m 2 min 0 min 398 W/m 12,9 km/h (3 Bft) 95,74 %
04.10.2023 11:24 15,1 C 16,7 C 12,2 C 86 % 1028,2 hPa 0,0 l/m 2 min 0 min 348 W/m 12,9 km/h (3 Bft) 97,87 %
04.10.2023 11:26 15,1 C 17,2 C 12,8 C 86 % 1028,1 hPa 0,0 l/m 2 min 0 min 284 W/m 12,9 km/h (3 Bft) 97,83 %
04.10.2023 11:28 15,2 C 17,2 C 12,8 C 86 % 1028,1 hPa 0,0 l/m 2 min 0 min 352 W/m 22,5 km/h (4 Bft) 95,74 %
04.10.2023 11:30 15,2 C 17,2 C 13,3 C 86 % 1028,2 hPa 0,0 l/m 2 min 0 min 343 W/m 12,9 km/h (3 Bft) 97,87 %
04.10.2023 11:32 15,3 C 17,2 C 13,3 C 86 % 1028,1 hPa 0,0 l/m 2 min 0 min 309 W/m 25,7 km/h (4 Bft) 97,87 %
04.10.2023 11:34 15,3 C 17,2 C 13,3 C 86 % 1028,2 hPa 0,0 l/m 2 min 0 min 315 W/m 12,9 km/h (3 Bft) 95,74 %
04.10.2023 11:36 15,4 C 17,2 C 13,3 C 86 % 1028,2 hPa 0,0 l/m 2 min 0 min 280 W/m 9,7 km/h (2 Bft) 97,87 %
04.10.2023 11:38 15,4 C 17,2 C 13,3 C 86 % 1028,2 hPa 0,0 l/m 2 min 0 min 300 W/m 6,4 km/h (2 Bft) 97,87 %
04.10.2023 11:40 15,5 C 16,7 C 13,3 C 85 % 1028,2 hPa 0,0 l/m 2 min 0 min 335 W/m 19,3 km/h (3 Bft) 97,83 %
04.10.2023 11:42 15,5 C 17,2 C 12,8 C 85 % 1028,2 hPa 0,0 l/m 2 min 0 min 359 W/m 12,9 km/h (3 Bft) 97,87 %
04.10.2023 11:44 15,6 C 17,2 C 12,8 C 85 % 1028,2 hPa 0,0 l/m 2 min 0 min 332 W/m 12,9 km/h (3 Bft) 95,74 %
04.10.2023 11:46 15,6 C 17,8 C 13,3 C 85 % 1028,3 hPa 0,0 l/m 2 min 0 min 321 W/m 16,1 km/h (3 Bft) 97,87 %
04.10.2023 11:48 15,7 C 17,2 C 13,3 C 84 % 1028,2 hPa 0,0 l/m 2 min 0 min 296 W/m 16,1 km/h (3 Bft) 93,62 %
04.10.2023 11:50 15,7 C 17,8 C 13,3 C 85 % 1028,2 hPa 0,0 l/m 2 min 0 min 332 W/m 16,1 km/h (3 Bft) 91,49 %
04.10.2023 11:52 15,7 C 17,2 C 13,3 C 84 % 1028,3 hPa 0,0 l/m 2 min 0 min 373 W/m 22,5 km/h (4 Bft) 93,62 %
04.10.2023 11:54 15,8 C 17,2 C 12,8 C 84 % 1028,2 hPa 0,0 l/m 2 min 0 min 341 W/m 16,1 km/h (3 Bft) 95,74 %
04.10.2023 11:56 15,8 C 16,7 C 12,8 C 84 % 1028,3 hPa 0,0 l/m 2 min 0 min 355 W/m 16,1 km/h (3 Bft) 95,65 %
04.10.2023 11:58 15,8 C 16,1 C 12,8 C 84 % 1028,3 hPa 0,0 l/m 2 min 0 min 296 W/m 12,9 km/h (3 Bft) 93,62 %
04.10.2023 12:00 15,8 C 16,1 C 12,8 C 83 % 1028,3 hPa 0,0 l/m 0 min 0 min 257 W/m 12,9 km/h (3 Bft) 95,74 %
04.10.2023 12:02 15,8 C 16,1 C 12,2 C 83 % 1028,2 hPa 0,0 l/m 2 min 0 min 269 W/m 12,9 km/h (3 Bft) 95,74 %
04.10.2023 12:04 15,9 C 16,7 C 12,8 C 83 % 1028,2 hPa 0,0 l/m 2 min 0 min 317 W/m 12,9 km/h (3 Bft) 96,23 %
04.10.2023 12:08 16,0 C 16,1 C 12,2 C 83 % 1028,2 hPa 0,0 l/m 0 min 0 min 240 W/m 12,9 km/h (3 Bft) 97,87 %
04.10.2023 12:10 16,0 C 16,1 C 12,2 C 83 % 1028,2 hPa 0,0 l/m 0 min 0 min 223 W/m 16,1 km/h (3 Bft) 97,83 %
04.10.2023 12:12 16,1 C 16,1 C 12,2 C 82 % 1028,1 hPa 0,0 l/m 0 min 0 min 226 W/m 9,7 km/h (2 Bft) 95,74 %
04.10.2023 12:16 16,1 C 16,7 C 12,2 C 83 % 1028,1 hPa 0,0 l/m 0 min 0 min 225 W/m 12,9 km/h (3 Bft) 94,68 %
04.10.2023 12:18 16,2 C 16,7 C 12,2 C 82 % 1028,1 hPa 0,0 l/m 0 min 0 min 213 W/m 9,7 km/h (2 Bft) 97,87 %
04.10.2023 12:20 16,2 C 16,7 C 12,8 C 81 % 1028,1 hPa 0,0 l/m 0 min 0 min 223 W/m 12,9 km/h (3 Bft) 97,87 %
04.10.2023 12:22 16,2 C 16,7 C 12,8 C 81 % 1028,1 hPa 0,0 l/m 0 min 0 min 228 W/m 19,3 km/h (3 Bft) 97,87 %
04.10.2023 12:24 16,3 C 16,7 C 12,8 C 80 % 1028,0 hPa 0,0 l/m 0 min 0 min 228 W/m 22,5 km/h (4 Bft) 97,83 %
04.10.2023 12:26 16,3 C 16,7 C 12,8 C 80 % 1027,9 hPa 0,0 l/m 0 min 0 min 218 W/m 12,9 km/h (3 Bft) 97,87 %
04.10.2023 12:28 16,3 C 16,7 C 12,8 C 80 % 1027,9 hPa 0,0 l/m 0 min 0 min 211 W/m 12,9 km/h (3 Bft) 97,87 %
04.10.2023 12:30 16,4 C 16,7 C 12,8 C 80 % 1027,9 hPa 0,0 l/m 0 min 0 min 207 W/m 9,7 km/h (2 Bft) 95,74 %
04.10.2023 12:32 16,4 C 16,7 C 12,8 C 80 % 1027,9 hPa 0,0 l/m 0 min 0 min 207 W/m 12,9 km/h (3 Bft) 95,74 %
04.10.2023 12:34 16,4 C 16,7 C 12,8 C 79 % 1027,9 hPa 0,0 l/m 0 min 0 min 210 W/m 12,9 km/h (3 Bft) 100,00 %
04.10.2023 12:36 16,4 C 16,1 C 12,8 C 79 % 1028,0 hPa 0,0 l/m 0 min 0 min 215 W/m 12,9 km/h (3 Bft) 100,00 %
04.10.2023 12:38 16,4 C 16,1 C 12,2 C 79 % 1027,9 hPa 0,0 l/m 0 min 0 min 216 W/m 12,9 km/h (3 Bft) 95,65 %
04.10.2023 12:40 16,4 C 16,7 C 12,8 C 79 % 1027,9 hPa 0,0 l/m 0 min 0 min 219 W/m 12,9 km/h (3 Bft) 95,74 %
04.10.2023 12:42 16,4 C 16,7 C 12,8 C 79 % 1027,9 hPa 0,0 l/m 0 min 0 min 221 W/m 6,4 km/h (2 Bft) 97,87 %
04.10.2023 12:44 16,4 C 16,7 C 12,8 C 79 % 1027,8 hPa 0,0 l/m 0 min 0 min 220 W/m 9,7 km/h (2 Bft) 97,87 %
04.10.2023 12:46 16,6 C 16,7 C 12,8 C 80 % 1027,9 hPa 0,0 l/m 0 min 0 min 219 W/m 9,7 km/h (2 Bft) 97,96 %
04.10.2023 12:48 16,6 C 17,2 C 12,8 C 79 % 1027,9 hPa 0,0 l/m 0 min 0 min 220 W/m 12,9 km/h (3 Bft) 97,14 %
04.10.2023 12:50 16,6 C 17,2 C 12,8 C 80 % 1028,0 hPa 0,0 l/m 0 min 0 min 218 W/m 12,9 km/h (3 Bft) 97,87 %
04.10.2023 12:52 16,7 C 16,7 C 12,8 C 78 % 1027,9 hPa 0,0 l/m 0 min 0 min 217 W/m 16,1 km/h (3 Bft) 97,87 %
04.10.2023 12:54 16,7 C 16,7 C 12,8 C 78 % 1028,0 hPa 0,0 l/m 0 min 0 min 216 W/m 16,1 km/h (3 Bft) 97,87 %
04.10.2023 12:56 16,7 C 16,7 C 12,8 C 77 % 1028,0 hPa 0,0 l/m 0 min 0 min 218 W/m 16,1 km/h (3 Bft) 95,74 %
04.10.2023 12:58 16,7 C 16,7 C 12,8 C 77 % 1027,9 hPa 0,0 l/m 0 min 0 min 221 W/m 12,9 km/h (3 Bft) 98,11 %
04.10.2023 13:00 16,8 C 16,7 C 12,8 C 77 % 1027,9 hPa 0,0 l/m 0 min 0 min 220 W/m 12,9 km/h (3 Bft) 95,74 %
04.10.2023 13:02 16,7 C 16,7 C 12,8 C 77 % 1028,0 hPa 0,0 l/m 0 min 0 min 221 W/m 16,1 km/h (3 Bft) 95,74 %
04.10.2023 13:04 16,8 C 16,7 C 12,8 C 78 % 1028,0 hPa 0,0 l/m 0 min 0 min 222 W/m 12,9 km/h (3 Bft) 97,87 %
04.10.2023 13:06 16,7 C 16,7 C 12,8 C 77 % 1028,0 hPa 0,0 l/m 0 min 0 min 222 W/m 16,1 km/h (3 Bft) 97,87 %
04.10.2023 13:08 16,8 C 16,7 C 12,8 C 77 % 1028,0 hPa 0,0 l/m 0 min 0 min 223 W/m 9,7 km/h (2 Bft) 97,87 %
04.10.2023 13:10 16,8 C 16,7 C 12,8 C 78 % 1028,0 hPa 0,0 l/m 0 min 0 min 224 W/m 9,7 km/h (2 Bft) 100,00 %
04.10.2023 13:12 16,8 C 16,7 C 12,8 C 78 % 1027,9 hPa 0,0 l/m 0 min 0 min 229 W/m 6,4 km/h (2 Bft) 97,87 %
04.10.2023 13:14 16,8 C 16,7 C 12,8 C 78 % 1027,9 hPa 0,0 l/m 0 min 0 min 219 W/m 16,1 km/h (3 Bft) 100,00 %
04.10.2023 13:16 16,8 C 17,2 C 12,8 C 78 % 1027,9 hPa 0,0 l/m 0 min 0 min 225 W/m 6,4 km/h (2 Bft) 100,00 %
04.10.2023 13:18 16,9 C 17,2 C 12,8 C 79 % 1027,9 hPa 0,0 l/m 0 min 0 min 240 W/m 6,4 km/h (2 Bft) 100,00 %
04.10.2023 13:20 16,9 C 17,2 C 12,8 C 79 % 1027,9 hPa 0,0 l/m 0 min 0 min 245 W/m 12,9 km/h (3 Bft) 100,00 %
04.10.2023 13:22 17,0 C 17,2 C 13,3 C 78 % 1027,9 hPa 0,0 l/m 0 min 0 min 253 W/m 9,7 km/h (2 Bft) 100,00 %
04.10.2023 13:24 17,0 C 17,2 C 13,3 C 78 % 1027,9 hPa 0,0 l/m 0 min 0 min 250 W/m 12,9 km/h (3 Bft) 95,74 %
04.10.2023 13:26 17,0 C 17,2 C 13,3 C 78 % 1027,9 hPa 0,0 l/m 0 min 0 min 242 W/m 12,9 km/h (3 Bft) 100,00 %
04.10.2023 13:28 17,1 C 17,2 C 12,8 C 77 % 1027,9 hPa 0,0 l/m 0 min 0 min 229 W/m 12,9 km/h (3 Bft) 100,00 %
04.10.2023 13:30 17,0 C 17,2 C 12,8 C 77 % 1027,9 hPa 0,0 l/m 0 min 0 min 229 W/m 6,4 km/h (2 Bft) 100,00 %
04.10.2023 13:32 17,0 C 17,2 C 12,8 C 77 % 1027,9 hPa 0,0 l/m 0 min 0 min 234 W/m 12,9 km/h (3 Bft) 100,00 %
04.10.2023 13:34 17,0 C 17,2 C 12,8 C 77 % 1027,9 hPa 0,0 l/m 0 min 0 min 259 W/m 19,3 km/h (3 Bft) 100,00 %
04.10.2023 13:36 17,0 C 17,2 C 12,8 C 76 % 1027,9 hPa 0,0 l/m 0 min 0 min 267 W/m 12,9 km/h (3 Bft) 100,00 %
04.10.2023 13:38 17,0 C 17,2 C 12,8 C 76 % 1027,9 hPa 0,0 l/m 0 min 0 min 260 W/m 12,9 km/h (3 Bft) 100,00 %
04.10.2023 13:40 17,0 C 16,7 C 12,8 C 76 % 1027,9 hPa 0,0 l/m 0 min 0 min 260 W/m 22,5 km/h (4 Bft) 97,87 %
04.10.2023 13:42 17,0 C 17,2 C 12,8 C 76 % 1027,7 hPa 0,0 l/m 0 min 0 min 255 W/m 6,4 km/h (2 Bft) 100,00 %
04.10.2023 13:44 17,1 C 17,2 C 12,8 C 76 % 1027,8 hPa 0,0 l/m 0 min 0 min 253 W/m 22,5 km/h (4 Bft) 100,00 %
04.10.2023 13:46 17,1 C 17,2 C 12,8 C 76 % 1027,7 hPa 0,0 l/m 0 min 0 min 240 W/m 16,1 km/h (3 Bft) 100,00 %
04.10.2023 13:48 17,1 C 17,2 C 12,8 C 76 % 1027,8 hPa 0,0 l/m 0 min 0 min 254 W/m 12,9 km/h (3 Bft) 100,00 %
04.10.2023 13:50 17,1 C 17,2 C 12,8 C 76 % 1027,7 hPa 0,0 l/m 0 min 0 min 247 W/m 12,9 km/h (3 Bft) 100,00 %
04.10.2023 13:52 17,1 C 17,2 C 12,8 C 76 % 1027,6 hPa 0,0 l/m 0 min 0 min 252 W/m 12,9 km/h (3 Bft) 100,00 %
04.10.2023 13:54 17,1 C 17,2 C 12,8 C 76 % 1027,7 hPa 0,0 l/m 0 min 0 min 267 W/m 12,9 km/h (3 Bft) 100,00 %
04.10.2023 13:56 17,1 C 17,2 C 12,8 C 76 % 1027,6 hPa 0,0 l/m 2 min 0 min 289 W/m 16,1 km/h (3 Bft) 100,00 %
04.10.2023 13:58 17,1 C 17,2 C 13,3 C 76 % 1027,6 hPa 0,0 l/m 2 min 0 min 324 W/m 12,9 km/h (3 Bft) 100,00 %
04.10.2023 14:00 17,1 C 17,2 C 13,3 C 76 % 1027,6 hPa 0,0 l/m 2 min 0 min 364 W/m 12,9 km/h (3 Bft) 100,00 %
04.10.2023 14:02 17,2 C 17,8 C 13,3 C 75 % 1027,5 hPa 0,0 l/m 2 min 0 min 368 W/m 19,3 km/h (3 Bft) 100,00 %
04.10.2023 14:04 17,3 C 17,8 C 13,3 C 75 % 1027,6 hPa 0,0 l/m 2 min 0 min 345 W/m 19,3 km/h (3 Bft) 100,00 %
04.10.2023 14:06 17,3 C 17,8 C 13,3 C 74 % 1027,5 hPa 0,0 l/m 2 min 0 min 315 W/m 16,1 km/h (3 Bft) 95,83 %
04.10.2023 14:08 17,4 C 18,3 C 13,3 C 75 % 1027,5 hPa 0,0 l/m 2 min 0 min 293 W/m 9,7 km/h (2 Bft) 100,00 %
04.10.2023 14:10 17,5 C 18,3 C 13,9 C 75 % 1027,5 hPa 0,0 l/m 2 min 0 min 393 W/m 12,9 km/h (3 Bft) 100,00 %
04.10.2023 14:12 17,6 C 18,9 C 13,9 C 74 % 1027,5 hPa 0,0 l/m 2 min 0 min 406 W/m 16,1 km/h (3 Bft) 95,74 %
04.10.2023 14:14 17,7 C 18,3 C 13,9 C 73 % 1027,4 hPa 0,0 l/m 2 min 0 min 419 W/m 19,3 km/h (3 Bft) 100,00 %
04.10.2023 14:16 17,7 C 18,3 C 13,9 C 73 % 1027,4 hPa 0,0 l/m 2 min 0 min 403 W/m 19,3 km/h (3 Bft) 97,87 %
04.10.2023 14:18 17,7 C 18,3 C 13,9 C 72 % 1027,4 hPa 0,0 l/m 2 min 0 min 372 W/m 16,1 km/h (3 Bft) 97,87 %
04.10.2023 14:20 17,8 C 18,3 C 13,9 C 72 % 1027,3 hPa 0,0 l/m 2 min 0 min 368 W/m 22,5 km/h (4 Bft) 93,62 %
04.10.2023 14:22 17,8 C 18,3 C 13,9 C 73 % 1027,3 hPa 0,0 l/m 2 min 0 min 355 W/m 16,1 km/h (3 Bft) 97,87 %
04.10.2023 14:24 17,8 C 18,3 C 13,9 C 73 % 1027,3 hPa 0,0 l/m 2 min 0 min 344 W/m 16,1 km/h (3 Bft) 97,87 %
04.10.2023 14:26 17,9 C 18,3 C 13,9 C 73 % 1027,2 hPa 0,0 l/m 2 min 0 min 357 W/m 9,7 km/h (2 Bft) 97,30 %
04.10.2023 14:28 17,9 C 18,3 C 13,9 C 73 % 1027,3 hPa 0,0 l/m 2 min 0 min 361 W/m 6,4 km/h (2 Bft) 95,74 %
04.10.2023 14:30 18,0 C 18,3 C 13,9 C 73 % 1027,3 hPa 0,0 l/m 2 min 0 min 359 W/m 16,1 km/h (3 Bft) 95,74 %
04.10.2023 14:32 18,0 C 18,3 C 13,9 C 72 % 1027,3 hPa 0,0 l/m 2 min 0 min 365 W/m 16,1 km/h (3 Bft) 93,62 %
04.10.2023 14:34 18,0 C 18,3 C 13,9 C 72 % 1027,3 hPa 0,0 l/m 2 min 0 min 332 W/m 12,9 km/h (3 Bft) 93,62 %
04.10.2023 14:36 18,1 C 18,3 C 13,9 C 72 % 1027,3 hPa 0,0 l/m 2 min 0 min 365 W/m 12,9 km/h (3 Bft) 93,62 %
04.10.2023 14:38 18,0 C 18,3 C 13,9 C 71 % 1027,3 hPa 0,0 l/m 2 min 0 min 340 W/m 12,9 km/h (3 Bft) 95,74 %
04.10.2023 14:40 18,0 C 18,3 C 13,9 C 71 % 1027,3 hPa 0,0 l/m 2 min 0 min 371 W/m 16,1 km/h (3 Bft) 93,62 %
04.10.2023 14:42 18,1 C 18,3 C 13,9 C 71 % 1027,2 hPa 0,0 l/m 2 min 0 min 361 W/m 9,7 km/h (2 Bft) 93,48 %
04.10.2023 14:44 18,1 C 18,3 C 13,9 C 71 % 1027,3 hPa 0,0 l/m 2 min 0 min 355 W/m 19,3 km/h (3 Bft) 89,36 %
04.10.2023 14:46 18,1 C 18,3 C 13,9 C 72 % 1027,2 hPa 0,0 l/m 2 min 0 min 332 W/m 9,7 km/h (2 Bft) 93,62 %
04.10.2023 14:48 18,1 C 18,3 C 13,9 C 72 % 1027,2 hPa 0,0 l/m 2 min 0 min 325 W/m 6,4 km/h (2 Bft) 93,62 %
04.10.2023 14:50 18,2 C 18,3 C 13,9 C 72 % 1027,2 hPa 0,0 l/m 2 min 0 min 328 W/m 6,4 km/h (2 Bft) 91,49 %
04.10.2023 14:52 18,2 C 18,3 C 13,9 C 72 % 1027,2 hPa 0,0 l/m 2 min 0 min 346 W/m 19,3 km/h (3 Bft) 93,62 %
04.10.2023 14:54 18,1 C 18,3 C 13,9 C 71 % 1027,1 hPa 0,0 l/m 2 min 0 min 339 W/m 12,9 km/h (3 Bft) 93,62 %
04.10.2023 14:56 18,0 C 17,8 C 13,9 C 70 % 1027,2 hPa 0,0 l/m 2 min 0 min 341 W/m 12,9 km/h (3 Bft) 93,62 %
04.10.2023 14:58 18,0 C 17,8 C 13,9 C 71 % 1027,1 hPa 0,0 l/m 2 min 0 min 280 W/m 9,7 km/h (2 Bft) 93,62 %
04.10.2023 15:00 18,0 C 17,8 C 13,3 C 71 % 1027,1 hPa 0,0 l/m 2 min 0 min 283 W/m 12,9 km/h (3 Bft) 95,65 %
04.10.2023 15:02 18,0 C 17,8 C 13,3 C 71 % 1027,2 hPa 0,0 l/m 2 min 0 min 311 W/m 12,9 km/h (3 Bft) 95,74 %
04.10.2023 15:04 18,0 C 17,8 C 13,3 C 71 % 1027,1 hPa 0,0 l/m 2 min 0 min 293 W/m 6,4 km/h (2 Bft) 93,88 %
04.10.2023 15:06 18,0 C 17,8 C 13,3 C 71 % 1027,3 hPa 0,0 l/m 2 min 0 min 289 W/m 9,7 km/h (2 Bft) 95,83 %
04.10.2023 15:08 17,9 C 17,8 C 13,3 C 70 % 1027,3 hPa 0,0 l/m 2 min 0 min 276 W/m 6,4 km/h (2 Bft) 95,92 %
04.10.2023 15:10 17,9 C 17,8 C 13,3 C 71 % 1027,2 hPa 0,0 l/m 2 min 0 min 272 W/m 16,1 km/h (3 Bft) 93,62 %
04.10.2023 15:12 17,9 C 17,8 C 13,3 C 71 % 1027,3 hPa 0,0 l/m 2 min 0 min 272 W/m 9,7 km/h (2 Bft) 95,74 %
04.10.2023 15:14 17,9 C 17,8 C 13,3 C 71 % 1027,2 hPa 0,0 l/m 2 min 0 min 261 W/m 6,4 km/h (2 Bft) 95,74 %
04.10.2023 15:16 17,9 C 17,8 C 13,3 C 71 % 1027,2 hPa 0,0 l/m 2 min 0 min 260 W/m 12,9 km/h (3 Bft) 93,62 %
04.10.2023 15:18 17,9 C 17,8 C 13,3 C 71 % 1027,3 hPa 0,0 l/m 2 min 0 min 266 W/m 12,9 km/h (3 Bft) 95,74 %
04.10.2023 15:20 17,8 C 17,8 C 13,3 C 71 % 1027,3 hPa 0,0 l/m 2 min 0 min 263 W/m 12,9 km/h (3 Bft) 93,62 %
04.10.2023 15:22 17,8 C 17,8 C 13,3 C 71 % 1027,4 hPa 0,0 l/m 2 min 0 min 242 W/m 12,9 km/h (3 Bft) 97,87 %
04.10.2023 15:24 17,8 C 17,8 C 13,3 C 72 % 1027,3 hPa 0,0 l/m 0 min 0 min 228 W/m 16,1 km/h (3 Bft) 100,00 %
04.10.2023 15:26 17,8 C 17,8 C 13,3 C 72 % 1027,3 hPa 0,0 l/m 0 min 0 min 218 W/m 12,9 km/h (3 Bft) 100,00 %
04.10.2023 15:28 17,8 C 17,8 C 13,3 C 72 % 1027,3 hPa 0,0 l/m 0 min 0 min 199 W/m 12,9 km/h (3 Bft) 100,00 %
04.10.2023 15:30 17,8 C 17,8 C 13,3 C 73 % 1027,3 hPa 0,0 l/m 0 min 0 min 191 W/m 12,9 km/h (3 Bft) 100,00 %
04.10.2023 15:32 17,7 C 17,2 C 13,3 C 72 % 1027,3 hPa 0,0 l/m 0 min 0 min 169 W/m 6,4 km/h (2 Bft) 100,00 %
04.10.2023 15:34 17,7 C 17,2 C 13,3 C 72 % 1027,2 hPa 0,0 l/m 0 min 0 min 146 W/m 25,7 km/h (4 Bft) 100,00 %
04.10.2023 15:36 17,6 C 17,2 C 13,3 C 72 % 1027,3 hPa 0,0 l/m 0 min 0 min 132 W/m 16,1 km/h (3 Bft) 100,00 %
04.10.2023 15:38 17,6 C 17,2 C 13,3 C 73 % 1027,2 hPa 0,0 l/m 0 min 0 min 115 W/m 12,9 km/h (3 Bft) 100,00 %
04.10.2023 15:40 17,6 C 17,2 C 13,3 C 73 % 1027,3 hPa 0,0 l/m 0 min 0 min 117 W/m 12,9 km/h (3 Bft) 100,00 %
04.10.2023 15:42 17,5 C 17,2 C 13,3 C 73 % 1027,2 hPa 0,0 l/m 0 min 0 min 131 W/m 6,4 km/h (2 Bft) 100,00 %
04.10.2023 15:44 17,5 C 17,2 C 13,3 C 73 % 1027,2 hPa 0,0 l/m 0 min 0 min 128 W/m 12,9 km/h (3 Bft) 97,87 %
04.10.2023 15:46 17,4 C 17,2 C 12,8 C 73 % 1027,2 hPa 0,0 l/m 0 min 0 min 133 W/m 12,9 km/h (3 Bft) 100,00 %
04.10.2023 15:48 17,4 C 17,2 C 12,8 C 74 % 1027,2 hPa 0,0 l/m 0 min 0 min 145 W/m 9,7 km/h (2 Bft) 100,00 %
04.10.2023 15:50 17,4 C 17,2 C 13,3 C 73 % 1027,2 hPa 0,0 l/m 0 min 0 min 147 W/m 12,9 km/h (3 Bft) 97,87 %
04.10.2023 15:52 17,4 C 17,2 C 13,3 C 73 % 1027,2 hPa 0,0 l/m 0 min 0 min 161 W/m 16,1 km/h (3 Bft) 100,00 %
04.10.2023 15:54 17,3 C 17,2 C 13,3 C 73 % 1027,1 hPa 0,0 l/m 0 min 0 min 179 W/m 12,9 km/h (3 Bft) 100,00 %
04.10.2023 15:56 17,3 C 17,2 C 13,3 C 73 % 1027,2 hPa 0,0 l/m 0 min 0 min 185 W/m 6,4 km/h (2 Bft) 100,00 %
04.10.2023 15:58 17,4 C 17,2 C 13,3 C 73 % 1027,1 hPa 0,0 l/m 0 min 0 min 193 W/m 6,4 km/h (2 Bft) 100,00 %
04.10.2023 16:00 17,4 C 17,2 C 13,3 C 73 % 1027,1 hPa 0,0 l/m 2 min 0 min 211 W/m 16,1 km/h (3 Bft) 100,00 %
04.10.2023 16:02 17,4 C 17,2 C 13,3 C 73 % 1027,1 hPa 0,0 l/m 0 min 0 min 204 W/m 12,9 km/h (3 Bft) 97,87 %
04.10.2023 16:04 17,4 C 17,2 C 13,3 C 73 % 1027,1 hPa 0,0 l/m 2 min 0 min 211 W/m 12,9 km/h (3 Bft) 100,00 %
04.10.2023 16:06 17,4 C 17,2 C 13,3 C 73 % 1027,1 hPa 0,0 l/m 0 min 0 min 193 W/m 12,9 km/h (3 Bft) 100,00 %
04.10.2023 16:08 17,3 C 17,2 C 13,3 C 73 % 1027,1 hPa 0,0 l/m 0 min 0 min 177 W/m 6,4 km/h (2 Bft) 100,00 %
04.10.2023 16:10 17,4 C 17,2 C 13,3 C 74 % 1027,0 hPa 0,0 l/m 0 min 0 min 161 W/m 9,7 km/h (2 Bft) 97,87 %
04.10.2023 16:12 17,4 C 17,2 C 13,3 C 74 % 1027,1 hPa 0,0 l/m 0 min 0 min 145 W/m 9,7 km/h (2 Bft) 100,00 %
04.10.2023 16:14 17,4 C 17,2 C 13,3 C 74 % 1027,1 hPa 0,0 l/m 0 min 0 min 143 W/m 6,4 km/h (2 Bft) 100,00 %
04.10.2023 16:16 17,4 C 17,2 C 13,3 C 74 % 1027,1 hPa 0,0 l/m 0 min 0 min 164 W/m 16,1 km/h (3 Bft) 97,62 %
04.10.2023 16:18 17,4 C 17,2 C 13,3 C 74 % 1027,1 hPa 0,0 l/m 0 min 0 min 173 W/m 9,7 km/h (2 Bft) 100,00 %
04.10.2023 16:20 17,4 C 17,2 C 13,3 C 73 % 1027,0 hPa 0,0 l/m 0 min 0 min 177 W/m 19,3 km/h (3 Bft) 100,00 %
04.10.2023 16:22 17,4 C 17,2 C 13,3 C 73 % 1027,0 hPa 0,0 l/m 0 min 0 min 169 W/m 12,9 km/h (3 Bft) 95,74 %
04.10.2023 16:24 17,4 C 17,2 C 13,3 C 74 % 1026,9 hPa 0,0 l/m 0 min 0 min 155 W/m 12,9 km/h (3 Bft) 100,00 %
04.10.2023 16:26 17,4 C 17,2 C 13,3 C 74 % 1026,9 hPa 0,0 l/m 0 min 0 min 144 W/m 12,9 km/h (3 Bft) 100,00 %
04.10.2023 16:28 17,4 C 17,2 C 13,3 C 74 % 1026,9 hPa 0,0 l/m 0 min 0 min 141 W/m 16,1 km/h (3 Bft) 97,87 %
04.10.2023 16:30 17,4 C 17,2 C 13,3 C 74 % 1026,9 hPa 0,0 l/m 0 min 0 min 142 W/m 6,4 km/h (2 Bft) 100,00 %
04.10.2023 16:32 17,4 C 17,2 C 13,3 C 74 % 1026,8 hPa 0,0 l/m 0 min 0 min 133 W/m 12,9 km/h (3 Bft) 100,00 %
04.10.2023 16:34 17,3 C 16,7 C 12,8 C 73 % 1026,8 hPa 0,0 l/m 0 min 0 min 124 W/m 12,9 km/h (3 Bft) 97,87 %
04.10.2023 16:36 17,3 C 16,7 C 12,8 C 74 % 1026,9 hPa 0,0 l/m 0 min 0 min 120 W/m 19,3 km/h (3 Bft) 100,00 %
04.10.2023 16:38 17,3 C 16,7 C 12,8 C 73 % 1026,8 hPa 0,0 l/m 0 min 0 min 122 W/m 25,7 km/h (4 Bft) 97,87 %
04.10.2023 16:40 17,2 C 16,7 C 12,8 C 73 % 1026,8 hPa 0,0 l/m 0 min 0 min 129 W/m 16,1 km/h (3 Bft) 97,87 %
04.10.2023 16:42 17,2 C 16,7 C 12,8 C 74 % 1026,8 hPa 0,0 l/m 0 min 0 min 134 W/m 12,9 km/h (3 Bft) 97,83 %
04.10.2023 16:44 17,2 C 16,7 C 12,8 C 74 % 1026,8 hPa 0,0 l/m 0 min 0 min 132 W/m 12,9 km/h (3 Bft) 100,00 %
04.10.2023 16:46 17,2 C 16,7 C 12,8 C 75 % 1026,7 hPa 0,0 l/m 0 min 0 min 127 W/m 9,7 km/h (2 Bft) 93,62 %
04.10.2023 16:48 17,2 C 16,7 C 12,8 C 75 % 1026,7 hPa 0,0 l/m 0 min 0 min 114 W/m 12,9 km/h (3 Bft) 98,00 %
04.10.2023 16:50 17,2 C 16,7 C 12,8 C 75 % 1026,7 hPa 0,0 l/m 0 min 0 min 100 W/m 9,7 km/h (2 Bft) 91,49 %
04.10.2023 16:52 17,2 C 16,7 C 12,8 C 74 % 1026,7 hPa 0,0 l/m 0 min 0 min 93 W/m 12,9 km/h (3 Bft) 93,62 %
04.10.2023 16:54 17,2 C 16,7 C 12,8 C 74 % 1026,7 hPa 0,0 l/m 0 min 0 min 94 W/m 3,2 km/h (1 Bft) 95,74 %
04.10.2023 16:56 17,2 C 16,7 C 12,8 C 75 % 1026,6 hPa 0,0 l/m 0 min 0 min 98 W/m 3,2 km/h (1 Bft) 95,74 %
04.10.2023 16:58 17,2 C 16,7 C 12,8 C 74 % 1026,7 hPa 0,0 l/m 0 min 0 min 104 W/m 0,0 km/h (0 Bft) 93,48 %
04.10.2023 17:00 17,2 C 16,7 C 12,8 C 74 % 1026,7 hPa 0,0 l/m 0 min 0 min 106 W/m 0,0 km/h (0 Bft) 95,74 %
04.10.2023 17:02 17,2 C 16,7 C 12,8 C 75 % 1026,7 hPa 0,0 l/m 0 min 0 min 104 W/m 3,2 km/h (1 Bft) 93,62 %
04.10.2023 17:04 17,2 C 16,7 C 12,8 C 75 % 1026,6 hPa 0,0 l/m 0 min 0 min 110 W/m 6,4 km/h (2 Bft) 91,11 %
04.10.2023 17:10 17,1 C 16,7 C 12,8 C 75 % 1026,5 hPa 0,0 l/m 0 min 0 min 120 W/m 9,7 km/h (2 Bft) 95,71 %
04.10.2023 17:12 17,2 C 16,7 C 12,8 C 76 % 1026,5 hPa 0,0 l/m 0 min 0 min 113 W/m 6,4 km/h (2 Bft) 93,62 %
04.10.2023 17:14 17,2 C 16,7 C 12,8 C 76 % 1026,5 hPa 0,0 l/m 0 min 0 min 114 W/m 22,5 km/h (4 Bft) 95,74 %
04.10.2023 17:16 17,2 C 16,7 C 12,8 C 75 % 1026,5 hPa 0,0 l/m 0 min 0 min 113 W/m 9,7 km/h (2 Bft) 95,74 %
04.10.2023 17:18 17,2 C 16,7 C 12,8 C 75 % 1026,5 hPa 0,0 l/m 0 min 0 min 101 W/m 12,9 km/h (3 Bft) 95,74 %
04.10.2023 17:20 17,2 C 16,7 C 12,8 C 75 % 1026,4 hPa 0,0 l/m 0 min 0 min 96 W/m 19,3 km/h (3 Bft) 95,74 %
04.10.2023 17:22 17,1 C 16,7 C 12,8 C 74 % 1026,5 hPa 0,0 l/m 0 min 0 min 94 W/m 12,9 km/h (3 Bft) 97,83 %
04.10.2023 17:24 17,1 C 16,7 C 12,8 C 75 % 1026,5 hPa 0,0 l/m 0 min 0 min 78 W/m 12,9 km/h (3 Bft) 95,74 %
04.10.2023 17:26 17,1 C 16,7 C 12,8 C 75 % 1026,5 hPa 0,0 l/m 0 min 0 min 64 W/m 6,4 km/h (2 Bft) 95,74 %
04.10.2023 17:28 17,1 C 16,7 C 12,8 C 75 % 1026,4 hPa 0,0 l/m 0 min 0 min 55 W/m 6,4 km/h (2 Bft) 95,74 %
04.10.2023 17:30 17,1 C 16,7 C 12,8 C 75 % 1026,4 hPa 0,0 l/m 0 min 0 min 45 W/m 3,2 km/h (1 Bft) 100,00 %
04.10.2023 17:32 17,1 C 16,7 C 12,8 C 76 % 1026,4 hPa 0,0 l/m 0 min 0 min 43 W/m 12,9 km/h (3 Bft) 100,00 %
04.10.2023 17:34 17,1 C 16,1 C 12,8 C 75 % 1026,4 hPa 0,0 l/m 0 min 0 min 48 W/m 12,9 km/h (3 Bft) 97,87 %
04.10.2023 17:36 17,0 C 16,1 C 12,8 C 75 % 1026,4 hPa 0,0 l/m 0 min 0 min 55 W/m 6,4 km/h (2 Bft) 95,74 %
04.10.2023 17:38 17,0 C 16,1 C 12,8 C 76 % 1026,4 hPa 0,0 l/m 0 min 0 min 62 W/m 6,4 km/h (2 Bft) 95,74 %
04.10.2023 17:40 17,0 C 16,1 C 12,8 C 76 % 1026,3 hPa 0,0 l/m 0 min 0 min 65 W/m 9,7 km/h (2 Bft) 100,00 %
04.10.2023 17:42 16,9 C 16,1 C 12,8 C 76 % 1026,3 hPa 0,0 l/m 0 min 0 min 60 W/m 9,7 km/h (2 Bft) 97,87 %
04.10.2023 17:44 16,9 C 16,1 C 12,8 C 76 % 1026,4 hPa 0,0 l/m 0 min 0 min 57 W/m 9,7 km/h (2 Bft) 95,74 %
04.10.2023 17:46 16,9 C 16,1 C 12,8 C 76 % 1026,4 hPa 0,0 l/m 0 min 0 min 73 W/m 6,4 km/h (2 Bft) 97,87 %
04.10.2023 17:48 16,9 C 16,1 C 12,8 C 76 % 1026,3 hPa 0,0 l/m 0 min 0 min 84 W/m 6,4 km/h (2 Bft) 97,87 %
04.10.2023 17:50 16,9 C 16,7 C 12,8 C 76 % 1026,4 hPa 0,0 l/m 0 min 0 min 89 W/m 3,2 km/h (1 Bft) 97,87 %
04.10.2023 17:52 16,9 C 16,7 C 12,8 C 76 % 1026,3 hPa 0,0 l/m 2 min 0 min 93 W/m 6,4 km/h (2 Bft) 97,87 %
04.10.2023 17:54 16,9 C 16,7 C 12,8 C 76 % 1026,3 hPa 0,0 l/m 2 min 0 min 90 W/m 12,9 km/h (3 Bft) 97,87 %
04.10.2023 17:56 16,9 C 16,7 C 12,8 C 76 % 1026,3 hPa 0,0 l/m 0 min 0 min 83 W/m 6,4 km/h (2 Bft) 97,87 %
04.10.2023 17:58 16,9 C 16,7 C 12,8 C 76 % 1026,3 hPa 0,0 l/m 0 min 0 min 78 W/m 16,1 km/h (3 Bft) 97,83 %
04.10.2023 18:00 16,9 C 16,7 C 12,8 C 76 % 1026,3 hPa 0,0 l/m 0 min 0 min 70 W/m 6,4 km/h (2 Bft) 97,87 %
04.10.2023 18:02 16,9 C 16,1 C 12,8 C 76 % 1026,3 hPa 0,0 l/m 0 min 0 min 60 W/m 3,2 km/h (1 Bft) 48,72 %
04.10.2023 18:04 16,9 C 16,1 C 12,8 C 76 % 1026,3 hPa 0,0 l/m 0 min 0 min 43 W/m 9,7 km/h (2 Bft) 96,23 %
04.10.2023 18:08 16,9 C 16,1 C 12,8 C 77 % 1026,3 hPa 0,0 l/m 0 min 0 min 32 W/m 6,4 km/h (2 Bft) 97,62 %
04.10.2023 18:10 16,9 C 16,1 C 12,2 C 77 % 1026,2 hPa 0,0 l/m 0 min 0 min 32 W/m 6,4 km/h (2 Bft) 97,87 %
04.10.2023 18:12 16,9 C 16,1 C 12,2 C 77 % 1026,3 hPa 0,0 l/m 0 min 0 min 31 W/m 6,4 km/h (2 Bft) 97,87 %
04.10.2023 18:16 16,9 C 16,1 C 12,2 C 77 % 1026,3 hPa 0,0 l/m 0 min 0 min 26 W/m 3,2 km/h (1 Bft) 97,87 %
04.10.2023 18:18 16,9 C 16,1 C 12,2 C 78 % 1026,2 hPa 0,0 l/m 0 min 0 min 20 W/m 3,2 km/h (1 Bft) 98,00 %
04.10.2023 18:20 16,8 C 16,1 C 12,2 C 78 % 1026,2 hPa 0,0 l/m 0 min 0 min 18 W/m 3,2 km/h (1 Bft) 95,74 %
04.10.2023 18:22 16,8 C 16,1 C 12,2 C 78 % 1026,1 hPa 0,0 l/m 0 min 0 min 19 W/m 3,2 km/h (1 Bft) 97,87 %
04.10.2023 18:24 16,8 C 16,1 C 12,2 C 78 % 1026,2 hPa 0,0 l/m 0 min 0 min 23 W/m 6,4 km/h (2 Bft) 97,87 %
04.10.2023 18:26 16,8 C 16,1 C 12,2 C 78 % 1026,3 hPa 0,0 l/m 0 min 0 min 27 W/m 6,4 km/h (2 Bft) 95,74 %
04.10.2023 18:28 16,8 C 16,1 C 12,2 C 78 % 1026,3 hPa 0,0 l/m 0 min 0 min 28 W/m 3,2 km/h (1 Bft) 97,87 %
04.10.2023 18:30 16,8 C 16,1 C 12,2 C 78 % 1026,3 hPa 0,0 l/m 0 min 0 min 28 W/m 9,7 km/h (2 Bft) 97,87 %
04.10.2023 18:32 16,8 C 16,1 C 12,2 C 78 % 1026,2 hPa 0,0 l/m 0 min 0 min 25 W/m 6,4 km/h (2 Bft) 97,87 %
04.10.2023 18:34 16,8 C 16,1 C 12,2 C 78 % 1026,2 hPa 0,0 l/m 0 min 0 min 25 W/m 3,2 km/h (1 Bft) 97,83 %
04.10.2023 18:36 16,7 C 15,6 C 12,2 C 78 % 1026,2 hPa 0,0 l/m 0 min 0 min 25 W/m 12,9 km/h (3 Bft) 95,74 %
04.10.2023 18:38 16,7 C 15,6 C 12,2 C 78 % 1026,2 hPa 0,0 l/m 0 min 0 min 20 W/m 3,2 km/h (1 Bft) 95,92 %
04.10.2023 18:40 16,7 C 15,6 C 12,2 C 78 % 1026,2 hPa 0,0 l/m 0 min 0 min 16 W/m 3,2 km/h (1 Bft) 100,00 %
04.10.2023 18:42 16,6 C 15,6 C 12,2 C 78 % 1026,3 hPa 0,0 l/m 0 min 0 min 14 W/m 3,2 km/h (1 Bft) 100,00 %
04.10.2023 18:44 16,6 C 15,6 C 12,2 C 79 % 1026,2 hPa 0,0 l/m 0 min 0 min 12 W/m 6,4 km/h (2 Bft) 100,00 %
04.10.2023 18:46 16,6 C 15,6 C 12,2 C 79 % 1026,2 hPa 0,0 l/m 0 min 0 min 12 W/m 3,2 km/h (1 Bft) 97,87 %
04.10.2023 18:48 16,6 C 15,6 C 12,2 C 79 % 1026,2 hPa 0,0 l/m 0 min 0 min 10 W/m 3,2 km/h (1 Bft) 95,74 %
04.10.2023 18:50 16,6 C 15,6 C 12,2 C 79 % 1026,2 hPa 0,0 l/m 0 min 0 min 8 W/m 3,2 km/h (1 Bft) 97,87 %
04.10.2023 18:52 16,5 C 15,6 C 11,7 C 79 % 1026,2 hPa 0,0 l/m 0 min 0 min 7 W/m 0,0 km/h (0 Bft) 97,87 %
04.10.2023 18:54 16,5 C 15,6 C 11,7 C 79 % 1026,2 hPa 0,0 l/m 0 min 0 min 6 W/m 3,2 km/h (1 Bft) 98,04 %
04.10.2023 18:56 16,5 C 15,6 C 11,7 C 79 % 1026,1 hPa 0,0 l/m 0 min 0 min 5 W/m 3,2 km/h (1 Bft) 97,87 %
04.10.2023 18:58 16,4 C 15,6 C 11,7 C 79 % 1026,2 hPa 0,0 l/m 0 min 0 min 5 W/m 6,4 km/h (2 Bft) 97,87 %
04.10.2023 19:00 16,4 C 15,6 C 11,7 C 79 % 1026,2 hPa 0,0 l/m 0 min 0 min 2 W/m 6,4 km/h (2 Bft) 95,65 %
04.10.2023 19:02 16,3 C 15,6 C 11,7 C 79 % 1026,1 hPa 0,0 l/m 0 min 0 min 0 W/m 9,7 km/h (2 Bft) 96,67 %
04.10.2023 19:04 16,3 C 15,6 C 11,7 C 79 % 1026,1 hPa 0,0 l/m 0 min 0 min 0 W/m 9,7 km/h (2 Bft) 98,11 %
04.10.2023 19:06 16,3 C 15,6 C 11,7 C 79 % 1026,1 hPa 0,0 l/m 0 min 0 min 0 W/m 6,4 km/h (2 Bft) 97,83 %
04.10.2023 19:08 16,3 C 15,6 C 11,7 C 80 % 1026,2 hPa 0,0 l/m 0 min 0 min 0 W/m 3,2 km/h (1 Bft) 95,74 %
04.10.2023 19:10 16,2 C 15,6 C 11,7 C 80 % 1026,1 hPa 0,0 l/m 0 min 0 min 0 W/m 6,4 km/h (2 Bft) 97,87 %
04.10.2023 19:12 16,2 C 15,6 C 11,7 C 80 % 1026,1 hPa 0,0 l/m 0 min 0 min 0 W/m 0,0 km/h (0 Bft) 97,87 %
04.10.2023 19:14 16,2 C 15,6 C 11,7 C 80 % 1026,2 hPa 0,0 l/m 0 min 0 min 0 W/m 3,2 km/h (1 Bft) 97,87 %
04.10.2023 19:16 16,2 C 15,6 C 11,7 C 80 % 1026,2 hPa 0,0 l/m 0 min 0 min 0 W/m 6,4 km/h (2 Bft) 97,87 %
04.10.2023 19:18 16,2 C 15,0 C 11,7 C 80 % 1026,1 hPa 0,0 l/m 0 min 0 min 0 W/m 0,0 km/h (0 Bft) 97,87 %
04.10.2023 19:20 16,2 C 15,0 C 11,7 C 80 % 1026,1 hPa 0,0 l/m 0 min 0 min 0 W/m 6,4 km/h (2 Bft) 97,87 %
04.10.2023 19:22 16,2 C 15,0 C 11,7 C 80 % 1026,2 hPa 0,0 l/m 0 min 0 min 0 W/m 12,9 km/h (3 Bft) 100,00 %
04.10.2023 19:24 16,1 C 15,0 C 11,7 C 81 % 1026,2 hPa 0,0 l/m 0 min 0 min 0 W/m 6,4 km/h (2 Bft) 100,00 %
04.10.2023 19:26 16,1 C 15,0 C 11,7 C 80 % 1026,2 hPa 0,0 l/m 0 min 0 min 0 W/m 3,2 km/h (1 Bft) 100,00 %
04.10.2023 19:28 16,1 C 15,0 C 11,7 C 80 % 1026,1 hPa 0,0 l/m 0 min 0 min 0 W/m 3,2 km/h (1 Bft) 97,87 %
04.10.2023 19:30 16,1 C 15,0 C 11,7 C 80 % 1026,1 hPa 0,0 l/m 0 min 0 min 0 W/m 6,4 km/h (2 Bft) 97,87 %
04.10.2023 19:32 16,1 C 15,0 C 11,7 C 80 % 1026,1 hPa 0,0 l/m 0 min 0 min 0 W/m 9,7 km/h (2 Bft) 97,83 %
04.10.2023 19:34 16,1 C 15,0 C 11,7 C 81 % 1026,1 hPa 0,0 l/m 0 min 0 min 0 W/m 9,7 km/h (2 Bft) 97,87 %
04.10.2023 19:36 16,1 C 15,0 C 11,7 C 81 % 1026,2 hPa 0,0 l/m 0 min 0 min 0 W/m 6,4 km/h (2 Bft) 97,87 %
04.10.2023 19:38 16,1 C 15,0 C 11,7 C 81 % 1026,2 hPa 0,0 l/m 0 min 0 min 0 W/m 3,2 km/h (1 Bft) 97,87 %
04.10.2023 19:40 16,1 C 15,0 C 11,7 C 81 % 1026,2 hPa 0,0 l/m 0 min 0 min 0 W/m 3,2 km/h (1 Bft) 95,74 %
04.10.2023 19:42 16,1 C 15,0 C 11,7 C 81 % 1026,2 hPa 0,0 l/m 0 min 0 min 0 W/m 12,9 km/h (3 Bft) 97,87 %
04.10.2023 19:44 16,0 C 15,0 C 11,7 C 81 % 1026,2 hPa 0,0 l/m 0 min 0 min 0 W/m 6,4 km/h (2 Bft) 93,62 %
04.10.2023 19:46 16,0 C 15,0 C 11,7 C 81 % 1026,2 hPa 0,0 l/m 0 min 0 min 0 W/m 6,4 km/h (2 Bft) 97,92 %
04.10.2023 19:48 16,0 C 15,0 C 11,7 C 81 % 1026,2 hPa 0,0 l/m 0 min 0 min 0 W/m 6,4 km/h (2 Bft) 97,87 %
04.10.2023 19:50 15,9 C 15,0 C 11,7 C 81 % 1026,3 hPa 0,0 l/m 0 min 0 min 0 W/m 3,2 km/h (1 Bft) 97,87 %
04.10.2023 19:52 15,9 C 15,0 C 11,7 C 81 % 1026,2 hPa 0,0 l/m 0 min 0 min 0 W/m 3,2 km/h (1 Bft) 97,87 %
04.10.2023 19:54 15,9 C 15,0 C 11,7 C 82 % 1026,3 hPa 0,0 l/m 0 min 0 min 0 W/m 0,0 km/h (0 Bft) 95,74 %
04.10.2023 19:56 15,9 C 15,0 C 11,7 C 82 % 1026,3 hPa 0,0 l/m 0 min 0 min 0 W/m 6,4 km/h (2 Bft) 97,87 %
04.10.2023 19:58 15,9 C 15,0 C 11,7 C 82 % 1026,3 hPa 0,0 l/m 0 min 0 min 0 W/m 6,4 km/h (2 Bft) 97,87 %
04.10.2023 20:00 15,9 C 15,0 C 11,1 C 82 % 1026,3 hPa 0,0 l/m 0 min 0 min 0 W/m 6,4 km/h (2 Bft) 95,74 %
04.10.2023 20:02 15,8 C 15,0 C 11,1 C 82 % 1026,3 hPa 0,0 l/m 0 min 0 min 0 W/m 12,9 km/h (3 Bft) 97,87 %
04.10.2023 20:04 15,8 C 15,0 C 11,1 C 82 % 1026,2 hPa 0,0 l/m 0 min 0 min 0 W/m 3,2 km/h (1 Bft) 98,00 %
04.10.2023 20:06 15,8 C 15,0 C 11,1 C 82 % 1026,2 hPa 0,0 l/m 0 min 0 min 0 W/m 6,4 km/h (2 Bft) 97,87 %
04.10.2023 20:08 15,8 C 15,0 C 11,7 C 82 % 1026,2 hPa 0,0 l/m 0 min 0 min 0 W/m 3,2 km/h (1 Bft) 97,87 %
04.10.2023 20:10 15,8 C 15,0 C 11,7 C 82 % 1026,2 hPa 0,0 l/m 0 min 0 min 0 W/m 3,2 km/h (1 Bft) 97,87 %
04.10.2023 20:12 15,8 C 15,0 C 11,7 C 82 % 1026,3 hPa 0,0 l/m 0 min 0 min 0 W/m 6,4 km/h (2 Bft) 97,87 %
04.10.2023 20:14 15,8 C 15,0 C 11,7 C 83 % 1026,3 hPa 0,0 l/m 0 min 0 min 0 W/m 6,4 km/h (2 Bft) 97,87 %
04.10.2023 20:16 15,8 C 15,0 C 11,1 C 83 % 1026,3 hPa 0,0 l/m 0 min 0 min 0 W/m 0,0 km/h (0 Bft) 95,65 %
04.10.2023 20:18 15,8 C 15,0 C 11,1 C 83 % 1026,3 hPa 0,0 l/m 0 min 0 min 0 W/m 3,2 km/h (1 Bft) 100,00 %
04.10.2023 20:20 15,8 C 15,0 C 11,1 C 83 % 1026,3 hPa 0,0 l/m 0 min 0 min 0 W/m 3,2 km/h (1 Bft) 97,87 %
04.10.2023 20:22 15,8 C 15,0 C 11,1 C 83 % 1026,2 hPa 0,0 l/m 0 min 0 min 0 W/m 3,2 km/h (1 Bft) 97,87 %
04.10.2023 20:24 15,7 C 15,0 C 11,1 C 83 % 1026,3 hPa 0,0 l/m 0 min 0 min 0 W/m 3,2 km/h (1 Bft) 100,00 %
04.10.2023 20:26 15,7 C 15,0 C 11,1 C 83 % 1026,2 hPa 0,0 l/m 0 min 0 min 0 W/m 3,2 km/h (1 Bft) 97,87 %
04.10.2023 20:28 15,7 C 15,0 C 11,1 C 83 % 1026,3 hPa 0,0 l/m 0 min 0 min 0 W/m 6,4 km/h (2 Bft) 100,00 %
04.10.2023 20:30 15,7 C 15,0 C 11,1 C 83 % 1026,3 hPa 0,0 l/m 0 min 0 min 0 W/m 3,2 km/h (1 Bft) 97,87 %
04.10.2023 20:32 15,7 C 15,0 C 11,1 C 83 % 1026,3 hPa 0,0 l/m 0 min 0 min 0 W/m 9,7 km/h (2 Bft) 97,83 %
04.10.2023 20:34 15,7 C 15,0 C 11,1 C 83 % 1026,4 hPa 0,0 l/m 0 min 0 min 0 W/m 6,4 km/h (2 Bft) 97,87 %
04.10.2023 20:36 15,7 C 15,0 C 11,1 C 84 % 1026,4 hPa 0,0 l/m 0 min 0 min 0 W/m 3,2 km/h (1 Bft) 100,00 %
04.10.2023 20:38 15,7 C 14,4 C 11,1 C 84 % 1026,3 hPa 0,0 l/m 0 min 0 min 0 W/m 6,4 km/h (2 Bft) 97,87 %
04.10.2023 20:40 15,7 C 14,4 C 11,1 C 84 % 1026,3 hPa 0,0 l/m 0 min 0 min 0 W/m 6,4 km/h (2 Bft) 93,62 %
04.10.2023 20:42 15,7 C 14,4 C 11,1 C 84 % 1026,3 hPa 0,0 l/m 0 min 0 min 0 W/m 3,2 km/h (1 Bft) 93,62 %
04.10.2023 20:44 15,7 C 14,4 C 11,1 C 84 % 1026,3 hPa 0,0 l/m 0 min 0 min 0 W/m 0,0 km/h (0 Bft) 95,74 %
04.10.2023 20:46 15,6 C 14,4 C 11,1 C 84 % 1026,3 hPa 0,0 l/m 0 min 0 min 0 W/m 3,2 km/h (1 Bft) 91,49 %
04.10.2023 20:48 15,6 C 14,4 C 11,1 C 84 % 1026,3 hPa 0,0 l/m 0 min 0 min 0 W/m 3,2 km/h (1 Bft) 93,62 %
04.10.2023 20:50 15,6 C 14,4 C 11,1 C 84 % 1026,2 hPa 0,0 l/m 0 min 0 min 0 W/m 3,2 km/h (1 Bft) 95,74 %
04.10.2023 20:52 15,6 C 14,4 C 11,1 C 84 % 1026,2 hPa 0,0 l/m 0 min 0 min 0 W/m 3,2 km/h (1 Bft) 95,65 %
04.10.2023 20:54 15,6 C 14,4 C 11,1 C 84 % 1026,2 hPa 0,0 l/m 0 min 0 min 0 W/m 3,2 km/h (1 Bft) 95,74 %
04.10.2023 20:56 15,6 C 14,4 C 11,1 C 84 % 1026,1 hPa 0,0 l/m 0 min 0 min 0 W/m 3,2 km/h (1 Bft) 93,62 %
04.10.2023 20:58 15,6 C 14,4 C 11,1 C 84 % 1026,1 hPa 0,0 l/m 0 min 0 min 0 W/m 3,2 km/h (1 Bft) 95,83 %
04.10.2023 21:00 15,6 C 14,4 C 11,1 C 84 % 1026,1 hPa 0,0 l/m 0 min 0 min 0 W/m 6,4 km/h (2 Bft) 95,74 %
04.10.2023 21:02 15,5 C 14,4 C 11,1 C 84 % 1026,1 hPa 0,0 l/m 0 min 0 min 0 W/m 3,2 km/h (1 Bft) 95,74 %
04.10.2023 21:04 15,5 C 14,4 C 11,1 C 84 % 1026,2 hPa 0,0 l/m 0 min 0 min 0 W/m 3,2 km/h (1 Bft) 95,56 %
04.10.2023 21:10 15,4 C 14,4 C 11,1 C 85 % 1026,1 hPa 0,0 l/m 0 min 0 min 0 W/m 3,2 km/h (1 Bft) 95,35 %
04.10.2023 21:12 15,4 C 14,4 C 11,1 C 85 % 1026,0 hPa 0,0 l/m 0 min 0 min 0 W/m 3,2 km/h (1 Bft) 98,31 %
04.10.2023 21:14 15,4 C 14,4 C 11,1 C 85 % 1026,0 hPa 0,0 l/m 0 min 0 min 0 W/m 3,2 km/h (1 Bft) 97,14 %
04.10.2023 21:16 15,4 C 14,4 C 11,1 C 85 % 1026,0 hPa 0,0 l/m 0 min 0 min 0 W/m 3,2 km/h (1 Bft) 95,74 %
04.10.2023 21:18 15,4 C 14,4 C 11,1 C 85 % 1026,0 hPa 0,0 l/m 0 min 0 min 0 W/m 12,9 km/h (3 Bft) 97,87 %
04.10.2023 21:20 15,4 C 14,4 C 11,1 C 85 % 1026,0 hPa 0,0 l/m 0 min 0 min 0 W/m 9,7 km/h (2 Bft) 97,83 %
04.10.2023 21:22 15,4 C 14,4 C 11,1 C 85 % 1025,9 hPa 0,0 l/m 0 min 0 min 0 W/m 12,9 km/h (3 Bft) 98,31 %
04.10.2023 21:24 15,4 C 14,4 C 11,1 C 85 % 1026,0 hPa 0,0 l/m 0 min 0 min 0 W/m 9,7 km/h (2 Bft) 100,00 %
04.10.2023 21:26 15,4 C 14,4 C 11,1 C 85 % 1025,9 hPa 0,0 l/m 0 min 0 min 0 W/m 16,1 km/h (3 Bft) 100,00 %
04.10.2023 21:28 15,4 C 14,4 C 11,1 C 85 % 1026,0 hPa 0,0 l/m 0 min 0 min 0 W/m 9,7 km/h (2 Bft) 100,00 %
04.10.2023 21:30 15,4 C 14,4 C 11,1 C 85 % 1026,0 hPa 0,0 l/m 0 min 0 min 0 W/m 3,2 km/h (1 Bft) 100,00 %
04.10.2023 21:32 15,4 C 14,4 C 11,1 C 85 % 1026,0 hPa 0,0 l/m 0 min 0 min 0 W/m 6,4 km/h (2 Bft) 100,00 %
04.10.2023 21:34 15,4 C 14,4 C 11,1 C 85 % 1026,0 hPa 0,0 l/m 0 min 0 min 0 W/m 6,4 km/h (2 Bft) 100,00 %
04.10.2023 21:36 15,4 C 14,4 C 11,1 C 85 % 1025,9 hPa 0,0 l/m 0 min 0 min 0 W/m 9,7 km/h (2 Bft) 100,00 %
04.10.2023 21:38 15,4 C 14,4 C 11,1 C 85 % 1025,9 hPa 0,0 l/m 0 min 0 min 0 W/m 6,4 km/h (2 Bft) 100,00 %
04.10.2023 21:40 15,3 C 14,4 C 11,1 C 85 % 1025,9 hPa 0,0 l/m 0 min 0 min 0 W/m 6,4 km/h (2 Bft) 100,00 %
04.10.2023 21:42 15,3 C 14,4 C 11,1 C 85 % 1026,0 hPa 0,0 l/m 0 min 0 min 0 W/m 9,7 km/h (2 Bft) 100,00 %
04.10.2023 21:44 15,3 C 14,4 C 11,1 C 85 % 1026,0 hPa 0,0 l/m 0 min 0 min 0 W/m 3,2 km/h (1 Bft) 100,00 %
04.10.2023 21:46 15,3 C 14,4 C 11,1 C 85 % 1026,0 hPa 0,0 l/m 0 min 0 min 0 W/m 3,2 km/h (1 Bft) 100,00 %
04.10.2023 21:48 15,3 C 14,4 C 11,1 C 85 % 1026,0 hPa 0,0 l/m 0 min 0 min 0 W/m 3,2 km/h (1 Bft) 100,00 %
04.10.2023 21:50 15,3 C 14,4 C 11,1 C 85 % 1026,0 hPa 0,0 l/m 0 min 0 min 0 W/m 9,7 km/h (2 Bft) 100,00 %
04.10.2023 21:52 15,3 C 14,4 C 11,1 C 85 % 1026,0 hPa 0,0 l/m 0 min 0 min 0 W/m 3,2 km/h (1 Bft) 100,00 %
04.10.2023 21:54 15,3 C 14,4 C 11,1 C 84 % 1026,0 hPa 0,0 l/m 0 min 0 min 0 W/m 6,4 km/h (2 Bft) 97,87 %
04.10.2023 21:56 15,3 C 14,4 C 11,1 C 85 % 1026,0 hPa 0,0 l/m 0 min 0 min 0 W/m 3,2 km/h (1 Bft) 100,00 %
04.10.2023 21:58 15,3 C 14,4 C 11,1 C 85 % 1025,9 hPa 0,0 l/m 0 min 0 min 0 W/m 3,2 km/h (1 Bft) 97,87 %
04.10.2023 22:00 15,3 C 14,4 C 11,1 C 85 % 1025,9 hPa 0,0 l/m 0 min 0 min 0 W/m 3,2 km/h (1 Bft) 97,87 %
04.10.2023 22:02 15,3 C 14,4 C 11,1 C 85 % 1025,9 hPa 0,0 l/m 0 min 0 min 0 W/m 0,0 km/h (0 Bft) 100,00 %
04.10.2023 22:04 15,3 C 14,4 C 11,1 C 85 % 1025,9 hPa 0,0 l/m 0 min 0 min 0 W/m 0,0 km/h (0 Bft) 100,00 %
04.10.2023 22:06 15,3 C 14,4 C 11,1 C 85 % 1025,9 hPa 0,0 l/m 0 min 0 min 0 W/m 0,0 km/h (0 Bft) 97,87 %
04.10.2023 22:08 15,2 C 14,4 C 11,1 C 85 % 1025,9 hPa 0,0 l/m 0 min 0 min 0 W/m 0,0 km/h (0 Bft) 97,87 %
04.10.2023 22:10 15,2 C 14,4 C 11,1 C 85 % 1025,9 hPa 0,0 l/m 0 min 0 min 0 W/m 0,0 km/h (0 Bft) 95,65 %
04.10.2023 22:12 15,2 C 14,4 C 11,1 C 85 % 1025,9 hPa 0,0 l/m 0 min 0 min 0 W/m 3,2 km/h (1 Bft) 100,00 %
04.10.2023 22:14 15,2 C 14,4 C 11,1 C 85 % 1025,9 hPa 0,0 l/m 0 min 0 min 0 W/m 0,0 km/h (0 Bft) 100,00 %
04.10.2023 22:16 15,2 C 14,4 C 11,1 C 85 % 1025,8 hPa 0,0 l/m 0 min 0 min 0 W/m 3,2 km/h (1 Bft) 100,00 %
04.10.2023 22:18 15,2 C 14,4 C 11,1 C 85 % 1025,8 hPa 0,0 l/m 0 min 0 min 0 W/m 3,2 km/h (1 Bft) 97,87 %
04.10.2023 22:20 15,2 C 14,4 C 11,1 C 85 % 1025,7 hPa 0,0 l/m 0 min 0 min 0 W/m 3,2 km/h (1 Bft) 100,00 %
04.10.2023 22:22 15,2 C 14,4 C 11,1 C 85 % 1025,7 hPa 0,0 l/m 0 min 0 min 0 W/m 0,0 km/h (0 Bft) 100,00 %
04.10.2023 22:24 15,2 C 14,4 C 11,1 C 85 % 1025,7 hPa 0,0 l/m 0 min 0 min 0 W/m 3,2 km/h (1 Bft) 95,74 %
04.10.2023 22:26 15,1 C 14,4 C 10,6 C 85 % 1025,7 hPa 0,0 l/m 0 min 0 min 0 W/m 3,2 km/h (1 Bft) 95,74 %
04.10.2023 22:28 15,1 C 14,4 C 10,6 C 85 % 1025,7 hPa 0,0 l/m 0 min 0 min 0 W/m 3,2 km/h (1 Bft) 97,83 %
04.10.2023 22:30 15,1 C 13,9 C 10,6 C 85 % 1025,7 hPa 0,0 l/m 0 min 0 min 0 W/m 6,4 km/h (2 Bft) 93,62 %
04.10.2023 22:32 15,1 C 13,9 C 10,6 C 85 % 1025,7 hPa 0,0 l/m 0 min 0 min 0 W/m 3,2 km/h (1 Bft) 95,74 %
04.10.2023 22:34 15,0 C 13,9 C 10,6 C 85 % 1025,7 hPa 0,0 l/m 0 min 0 min 0 W/m 3,2 km/h (1 Bft) 95,74 %
04.10.2023 22:36 15,0 C 13,9 C 10,6 C 85 % 1025,6 hPa 0,0 l/m 0 min 0 min 0 W/m 3,2 km/h (1 Bft) 93,62 %
04.10.2023 22:38 14,9 C 13,9 C 10,6 C 85 % 1025,7 hPa 0,0 l/m 0 min 0 min 0 W/m 3,2 km/h (1 Bft) 95,74 %
04.10.2023 22:40 14,9 C 13,9 C 10,6 C 85 % 1025,6 hPa 0,0 l/m 0 min 0 min 0 W/m 3,2 km/h (1 Bft) 95,74 %
04.10.2023 22:42 14,9 C 13,9 C 10,6 C 85 % 1025,6 hPa 0,0 l/m 0 min 0 min 0 W/m 6,4 km/h (2 Bft) 95,74 %
04.10.2023 22:44 14,9 C 13,9 C 10,6 C 85 % 1025,6 hPa 0,0 l/m 0 min 0 min 0 W/m 3,2 km/h (1 Bft) 95,74 %
04.10.2023 22:46 14,8 C 13,9 C 10,6 C 85 % 1025,6 hPa 0,0 l/m 0 min 0 min 0 W/m 6,4 km/h (2 Bft) 95,74 %
04.10.2023 22:48 14,8 C 13,9 C 10,6 C 85 % 1025,6 hPa 0,0 l/m 0 min 0 min 0 W/m 3,2 km/h (1 Bft) 95,65 %
04.10.2023 22:50 14,8 C 13,9 C 10,6 C 85 % 1025,5 hPa 0,0 l/m 0 min 0 min 0 W/m 3,2 km/h (1 Bft) 94,44 %
04.10.2023 22:52 14,7 C 13,9 C 10,6 C 85 % 1025,5 hPa 0,0 l/m 0 min 0 min 0 W/m 3,2 km/h (1 Bft) 95,65 %
04.10.2023 22:54 14,7 C 13,9 C 10,6 C 85 % 1025,5 hPa 0,0 l/m 0 min 0 min 0 W/m 3,2 km/h (1 Bft) 95,74 %
04.10.2023 22:56 14,7 C 13,9 C 10,6 C 85 % 1025,6 hPa 0,0 l/m 0 min 0 min 0 W/m 6,4 km/h (2 Bft) 95,74 %
04.10.2023 22:58 14,7 C 13,9 C 10,6 C 85 % 1025,6 hPa 0,0 l/m 0 min 0 min 0 W/m 3,2 km/h (1 Bft) 92,73 %
04.10.2023 23:00 14,6 C 13,9 C 10,6 C 85 % 1025,6 hPa 0,0 l/m 0 min 0 min 0 W/m 6,4 km/h (2 Bft) 95,74 %
04.10.2023 23:02 14,6 C 13,9 C 10,6 C 85 % 1025,5 hPa 0,0 l/m 0 min 0 min 0 W/m 6,4 km/h (2 Bft) 97,83 %
04.10.2023 23:04 14,6 C 13,9 C 10,6 C 85 % 1025,5 hPa 0,0 l/m 0 min 0 min 0 W/m 6,4 km/h (2 Bft) 97,87 %
04.10.2023 23:10 14,5 C 13,9 C 10,6 C 85 % 1025,6 hPa 0,0 l/m 0 min 0 min 0 W/m 12,9 km/h (3 Bft) 96,45 %
04.10.2023 23:12 14,4 C 13,9 C 10,6 C 85 % 1025,6 hPa 0,0 l/m 0 min 0 min 0 W/m 12,9 km/h (3 Bft) 95,74 %
04.10.2023 23:14 14,4 C 13,9 C 10,6 C 85 % 1025,5 hPa 0,0 l/m 0 min 0 min 0 W/m 6,4 km/h (2 Bft) 97,87 %
04.10.2023 23:16 14,4 C 13,9 C 10,6 C 85 % 1025,5 hPa 0,0 l/m 0 min 0 min 0 W/m 6,4 km/h (2 Bft) 93,62 %
04.10.2023 23:18 14,4 C 13,3 C 10,0 C 85 % 1025,5 hPa 0,0 l/m 0 min 0 min 0 W/m 3,2 km/h (1 Bft) 97,87 %
04.10.2023 23:20 14,4 C 13,3 C 10,0 C 85 % 1025,5 hPa 0,0 l/m 0 min 0 min 0 W/m 6,4 km/h (2 Bft) 97,87 %
04.10.2023 23:22 14,3 C 13,3 C 10,6 C 85 % 1025,6 hPa 0,0 l/m 0 min 0 min 0 W/m 3,2 km/h (1 Bft) 97,83 %
04.10.2023 23:24 14,3 C 13,3 C 10,6 C 85 % 1025,5 hPa 0,0 l/m 0 min 0 min 0 W/m 12,9 km/h (3 Bft) 97,87 %
04.10.2023 23:26 14,3 C 13,3 C 10,0 C 85 % 1025,5 hPa 0,0 l/m 0 min 0 min 0 W/m 12,9 km/h (3 Bft) 95,74 %
04.10.2023 23:28 14,3 C 13,3 C 10,0 C 85 % 1025,5 hPa 0,0 l/m 0 min 0 min 0 W/m 16,1 km/h (3 Bft) 95,74 %
04.10.2023 23:30 14,3 C 13,3 C 10,0 C 85 % 1025,4 hPa 0,0 l/m 0 min 0 min 0 W/m 16,1 km/h (3 Bft) 95,74 %
04.10.2023 23:32 14,3 C 13,3 C 10,0 C 85 % 1025,5 hPa 0,0 l/m 0 min 0 min 0 W/m 9,7 km/h (2 Bft) 97,87 %
04.10.2023 23:34 14,3 C 13,3 C 10,0 C 85 % 1025,5 hPa 0,0 l/m 0 min 0 min 0 W/m 12,9 km/h (3 Bft) 95,74 %
04.10.2023 23:36 14,3 C 13,3 C 10,0 C 85 % 1025,5 hPa 0,0 l/m 0 min 0 min 0 W/m 12,9 km/h (3 Bft) 95,74 %
04.10.2023 23:38 14,3 C 13,3 C 10,0 C 85 % 1025,4 hPa 0,0 l/m 0 min 0 min 0 W/m 12,9 km/h (3 Bft) 97,87 %
04.10.2023 23:40 14,3 C 13,3 C 10,0 C 85 % 1025,5 hPa 0,0 l/m 0 min 0 min 0 W/m 12,9 km/h (3 Bft) 97,83 %
04.10.2023 23:42 14,3 C 13,3 C 10,0 C 85 % 1025,5 hPa 0,0 l/m 0 min 0 min 0 W/m 9,7 km/h (2 Bft) 97,87 %
04.10.2023 23:44 14,3 C 13,3 C 10,0 C 85 % 1025,5 hPa 0,0 l/m 0 min 0 min 0 W/m 6,4 km/h (2 Bft) 97,87 %
04.10.2023 23:46 14,3 C 13,3 C 10,0 C 85 % 1025,5 hPa 0,0 l/m 0 min 0 min 0 W/m 9,7 km/h (2 Bft) 97,87 %
04.10.2023 23:48 14,3 C 13,3 C 10,0 C 86 % 1025,5 hPa 0,0 l/m 0 min 0 min 0 W/m 6,4 km/h (2 Bft) 97,87 %
04.10.2023 23:50 14,3 C 13,3 C 10,0 C 86 % 1025,5 hPa 0,0 l/m 0 min 0 min 0 W/m 6,4 km/h (2 Bft) 97,87 %
04.10.2023 23:52 14,3 C 13,3 C 10,0 C 86 % 1025,5 hPa 0,0 l/m 0 min 0 min 0 W/m 12,9 km/h (3 Bft) 97,87 %
04.10.2023 23:54 14,3 C 13,3 C 10,0 C 86 % 1025,4 hPa 0,0 l/m 0 min 0 min 0 W/m 9,7 km/h (2 Bft) 97,87 %
04.10.2023 23:56 14,3 C 13,3 C 10,0 C 86 % 1025,5 hPa 0,0 l/m 0 min 0 min 0 W/m 9,7 km/h (2 Bft) 97,87 %
04.10.2023 23:58 14,2 C 13,3 C 10,0 C 86 % 1025,5 hPa 0,0 l/m 0 min 0 min 0 W/m 12,9 km/h (3 Bft) 97,83 %
_ Min-Zeit 08:22 07:30 06:56 14:56 01:18 - - - - 16:58 08:20
Minimum _ 11,4 C 10,6 C 7,8 C 70 % 1025,2 hPa - - - - 0,0 km/h (0 Bft) 44,74 %
_ Max-Zeit 14:50 14:12 14:10 07:22 11:46 00:00 10:36 00:00 14:14 11:32 00:09
Maximum _ 18,2 C 18,9 C 13,9 C 94 % 1028,3 hPa 0,0 l/m 2 min 0 min 419 W/m 25,7 km/h
S (4 Bft)
100,00 %
Durchschnitt _ 14,6 C 14,1 C 10,6 C 85 % 1026,6 hPa #0,0 l/m #2:42 h #0 min. 160 W/m 9,7 km/h (2 Bft) 97,28 %
© 2023 W. Hausmann